<?xml version="1.0" encoding="UTF-8" standalone="no" ?>
<gpx xmlns="http://www.topografix.com/GPX/1/1" xmlns:xsi="http://www.w3.org/2001/XMLSchema-instance" xsi:schemaLocation="http://www.topografix.com/GPX/1/1 http://www.topografix.com/GPX/1/1/gpx.xsd" version="1.1" creator="VisuGPX - https://www.visugpx.com">
  <metadata>
    <name>AUTOUR DE ST JULIEN CHAPTEUIL 26 KM.</name>
    <desc><![CDATA[RANDO AUTOUR DE ST JULIEN 26 KM.DEPART ARRIVEE INTERMARCHE.AUTEYRAC.LE VILLARD.LA CHAPELETTE.LA PRADETTE HAUTE.MONTCHARRET.NEYZAC.LA CHAPUZE.MONNAC.SUMENE.]]></desc>
  </metadata>
  <trk>
    <name><![CDATA[AUTOUR DE ST JULIEN CHAPTEUIL 26 KM._1]]></name>
    <desc><![CDATA[]]></desc>
    <trkseg>
      <trkpt lat="45.03611" lon="4.05064">
        <ele>828.1</ele>
      </trkpt>
      <trkpt lat="45.03611" lon="4.05063">
        <ele>828.1</ele>
      </trkpt>
      <trkpt lat="45.03611" lon="4.05064">
        <ele>828.1</ele>
      </trkpt>
      <trkpt lat="45.03616" lon="4.05068">
        <ele>827.8</ele>
      </trkpt>
      <trkpt lat="45.03664" lon="4.05079">
        <ele>822.6</ele>
      </trkpt>
      <trkpt lat="45.0367" lon="4.0508">
        <ele>822.2</ele>
      </trkpt>
      <trkpt lat="45.03675" lon="4.05029">
        <ele>823.4</ele>
      </trkpt>
      <trkpt lat="45.03685" lon="4.04936">
        <ele>820.5</ele>
      </trkpt>
      <trkpt lat="45.03689" lon="4.04899">
        <ele>819</ele>
      </trkpt>
      <trkpt lat="45.03691" lon="4.04852">
        <ele>816.8</ele>
      </trkpt>
      <trkpt lat="45.03692" lon="4.04801">
        <ele>814.8</ele>
      </trkpt>
      <trkpt lat="45.03691" lon="4.04736">
        <ele>812.5</ele>
      </trkpt>
      <trkpt lat="45.03691" lon="4.04726">
        <ele>812.4</ele>
      </trkpt>
      <trkpt lat="45.03686" lon="4.04709">
        <ele>809</ele>
        <time>2026-08-13T14:58:29Z</time>
      </trkpt>
      <trkpt lat="45.03686" lon="4.04623">
        <ele>810</ele>
        <time>2026-08-13T14:59:50Z</time>
      </trkpt>
      <trkpt lat="45.03684" lon="4.04614">
        <ele>811</ele>
        <time>2026-08-13T14:59:59Z</time>
      </trkpt>
      <trkpt lat="45.03673" lon="4.04602">
        <ele>813</ele>
        <time>2026-08-13T15:00:18Z</time>
      </trkpt>
      <trkpt lat="45.03675" lon="4.04574">
        <ele>814</ele>
        <time>2026-08-13T15:00:44Z</time>
      </trkpt>
      <trkpt lat="45.03667" lon="4.04555">
        <ele>815</ele>
        <time>2026-08-13T15:01:05Z</time>
      </trkpt>
      <trkpt lat="45.03659" lon="4.04553">
        <ele>816</ele>
        <time>2026-08-13T15:01:16Z</time>
      </trkpt>
      <trkpt lat="45.03644" lon="4.04557">
        <ele>819</ele>
        <time>2026-08-13T15:01:36Z</time>
      </trkpt>
      <trkpt lat="45.03613" lon="4.04577">
        <ele>823</ele>
        <time>2026-08-13T15:02:22Z</time>
      </trkpt>
      <trkpt lat="45.03552" lon="4.04593">
        <ele>830</ele>
        <time>2026-08-13T15:03:45Z</time>
      </trkpt>
      <trkpt lat="45.03542" lon="4.04593">
        <ele>831</ele>
        <time>2026-08-13T15:03:58Z</time>
      </trkpt>
      <trkpt lat="45.03531" lon="4.04587">
        <ele>832</ele>
        <time>2026-08-13T15:04:14Z</time>
      </trkpt>
      <trkpt lat="45.03499" lon="4.04592">
        <ele>836</ele>
        <time>2026-08-13T15:04:57Z</time>
      </trkpt>
      <trkpt lat="45.03453" lon="4.04573">
        <ele>841</ele>
        <time>2026-08-13T15:06:01Z</time>
      </trkpt>
      <trkpt lat="45.03412" lon="4.04574">
        <ele>845</ele>
        <time>2026-08-13T15:06:55Z</time>
      </trkpt>
      <trkpt lat="45.03353" lon="4.04583">
        <ele>852</ele>
        <time>2026-08-13T15:08:15Z</time>
      </trkpt>
      <trkpt lat="45.03341" lon="4.04592">
        <ele>853</ele>
        <time>2026-08-13T15:08:33Z</time>
      </trkpt>
      <trkpt lat="45.03319" lon="4.04593">
        <ele>856</ele>
        <time>2026-08-13T15:09:02Z</time>
      </trkpt>
      <trkpt lat="45.03308" lon="4.04589">
        <ele>857</ele>
        <time>2026-08-13T15:09:17Z</time>
      </trkpt>
      <trkpt lat="45.03283" lon="4.04595">
        <ele>860</ele>
        <time>2026-08-13T15:09:51Z</time>
      </trkpt>
      <trkpt lat="45.03268" lon="4.04592">
        <ele>862</ele>
        <time>2026-08-13T15:10:11Z</time>
      </trkpt>
      <trkpt lat="45.03199" lon="4.04625">
        <ele>870</ele>
        <time>2026-08-13T15:11:49Z</time>
      </trkpt>
      <trkpt lat="45.03115" lon="4.04632">
        <ele>875</ele>
        <time>2026-08-13T15:13:41Z</time>
      </trkpt>
      <trkpt lat="45.03048" lon="4.04743">
        <ele>879</ele>
        <time>2026-08-13T15:15:58Z</time>
      </trkpt>
      <trkpt lat="45.03029" lon="4.04755">
        <ele>876</ele>
        <time>2026-08-13T15:16:26Z</time>
      </trkpt>
      <trkpt lat="45.03011" lon="4.04803">
        <ele>873</ele>
        <time>2026-08-13T15:17:17Z</time>
      </trkpt>
      <trkpt lat="45.02979" lon="4.04847">
        <ele>869</ele>
        <time>2026-08-13T15:18:17Z</time>
      </trkpt>
      <trkpt lat="45.02991" lon="4.04874">
        <ele>867</ele>
        <time>2026-08-13T15:18:47Z</time>
      </trkpt>
      <trkpt lat="45.03006" lon="4.04892">
        <ele>864</ele>
        <time>2026-08-13T15:19:13Z</time>
      </trkpt>
      <trkpt lat="45.03003" lon="4.04913">
        <ele>861</ele>
        <time>2026-08-13T15:19:34Z</time>
      </trkpt>
      <trkpt lat="45.02996" lon="4.04907">
        <ele>862</ele>
        <time>2026-08-13T15:19:44Z</time>
      </trkpt>
      <trkpt lat="45.02974" lon="4.04921">
        <ele>860</ele>
        <time>2026-08-13T15:20:17Z</time>
      </trkpt>
      <trkpt lat="45.02975" lon="4.04928">
        <ele>859</ele>
        <time>2026-08-13T15:20:23Z</time>
      </trkpt>
      <trkpt lat="45.02995" lon="4.04928">
        <ele>859</ele>
        <time>2026-08-13T15:20:50Z</time>
      </trkpt>
      <trkpt lat="45.02993" lon="4.04936">
        <ele>858</ele>
        <time>2026-08-13T15:20:58Z</time>
      </trkpt>
      <trkpt lat="45.0296" lon="4.04959">
        <ele>855</ele>
        <time>2026-08-13T15:21:47Z</time>
      </trkpt>
      <trkpt lat="45.02903" lon="4.04986">
        <ele>853</ele>
        <time>2026-08-13T15:23:07Z</time>
      </trkpt>
      <trkpt lat="45.02886" lon="4.04981">
        <ele>854</ele>
        <time>2026-08-13T15:23:31Z</time>
      </trkpt>
      <trkpt lat="45.0285" lon="4.04936">
        <ele>857</ele>
        <time>2026-08-13T15:24:35Z</time>
      </trkpt>
      <trkpt lat="45.02823" lon="4.04913">
        <ele>857</ele>
        <time>2026-08-13T15:25:17Z</time>
      </trkpt>
      <trkpt lat="45.02805" lon="4.04905">
        <ele>857</ele>
        <time>2026-08-13T15:25:42Z</time>
      </trkpt>
      <trkpt lat="45.02795" lon="4.04904">
        <ele>857</ele>
        <time>2026-08-13T15:25:55Z</time>
      </trkpt>
      <trkpt lat="45.02787" lon="4.04908">
        <ele>857</ele>
        <time>2026-08-13T15:26:07Z</time>
      </trkpt>
      <trkpt lat="45.02782" lon="4.04935">
        <ele>857</ele>
        <time>2026-08-13T15:26:33Z</time>
      </trkpt>
      <trkpt lat="45.02774" lon="4.04948">
        <ele>857</ele>
        <time>2026-08-13T15:26:49Z</time>
      </trkpt>
      <trkpt lat="45.0278" lon="4.0495">
        <ele>857</ele>
        <time>2026-08-13T06:13:25Z</time>
      </trkpt>
      <trkpt lat="45.02786" lon="4.04888">
        <ele>858</ele>
        <time>2026-08-13T06:14:24Z</time>
      </trkpt>
      <trkpt lat="45.02784" lon="4.0487">
        <ele>859</ele>
        <time>2026-08-13T06:14:41Z</time>
      </trkpt>
      <trkpt lat="45.02763" lon="4.04835">
        <ele>861</ele>
        <time>2026-08-13T06:15:25Z</time>
      </trkpt>
      <trkpt lat="45.02744" lon="4.0478">
        <ele>867</ele>
        <time>2026-08-13T06:16:22Z</time>
      </trkpt>
      <trkpt lat="45.02729" lon="4.0478">
        <ele>869</ele>
        <time>2026-08-13T06:16:42Z</time>
      </trkpt>
      <trkpt lat="45.02704" lon="4.04788">
        <ele>871</ele>
        <time>2026-08-13T06:17:16Z</time>
      </trkpt>
      <trkpt lat="45.02683" lon="4.04799">
        <ele>873</ele>
        <time>2026-08-13T06:17:46Z</time>
      </trkpt>
      <trkpt lat="45.02667" lon="4.04819">
        <ele>873</ele>
        <time>2026-08-13T06:18:15Z</time>
      </trkpt>
      <trkpt lat="45.02653" lon="4.04826">
        <ele>873</ele>
        <time>2026-08-13T06:18:35Z</time>
      </trkpt>
      <trkpt lat="45.02641" lon="4.04824">
        <ele>873</ele>
        <time>2026-08-13T06:18:51Z</time>
      </trkpt>
      <trkpt lat="45.02619" lon="4.04801">
        <ele>874</ele>
        <time>2026-08-13T06:19:27Z</time>
      </trkpt>
      <trkpt lat="45.02599" lon="4.04798">
        <ele>874</ele>
        <time>2026-08-13T06:19:54Z</time>
      </trkpt>
      <trkpt lat="45.02575" lon="4.04811">
        <ele>873</ele>
        <time>2026-08-13T06:20:28Z</time>
      </trkpt>
      <trkpt lat="45.02546" lon="4.04837">
        <ele>871</ele>
        <time>2026-08-13T06:21:14Z</time>
      </trkpt>
      <trkpt lat="45.0254" lon="4.04837">
        <ele>871</ele>
        <time>2026-08-13T06:21:22Z</time>
      </trkpt>
      <trkpt lat="45.02492" lon="4.04799">
        <ele>871</ele>
        <time>2026-08-13T06:22:36Z</time>
      </trkpt>
      <trkpt lat="45.02475" lon="4.04778">
        <ele>870</ele>
        <time>2026-08-13T06:23:06Z</time>
      </trkpt>
      <trkpt lat="45.02462" lon="4.04571">
        <ele>848</ele>
        <time>2026-08-13T06:26:22Z</time>
      </trkpt>
      <trkpt lat="45.02449" lon="4.04496">
        <ele>837</ele>
        <time>2026-08-13T06:27:35Z</time>
      </trkpt>
      <trkpt lat="45.02448" lon="4.04428">
        <ele>827</ele>
        <time>2026-08-13T06:28:39Z</time>
      </trkpt>
      <trkpt lat="45.02438" lon="4.04375">
        <ele>818</ele>
        <time>2026-08-13T06:29:30Z</time>
      </trkpt>
      <trkpt lat="45.0244" lon="4.04362">
        <ele>817</ele>
        <time>2026-08-13T06:29:43Z</time>
      </trkpt>
      <trkpt lat="45.02429" lon="4.04316">
        <ele>812</ele>
        <time>2026-08-13T06:30:29Z</time>
      </trkpt>
      <trkpt lat="45.02421" lon="4.043">
        <ele>811</ele>
        <time>2026-08-13T06:30:47Z</time>
      </trkpt>
      <trkpt lat="45.02405" lon="4.04232">
        <ele>808</ele>
        <time>2026-08-13T06:31:55Z</time>
      </trkpt>
      <trkpt lat="45.02372" lon="4.04167">
        <ele>806</ele>
        <time>2026-08-13T06:33:10Z</time>
      </trkpt>
      <trkpt lat="45.02366" lon="4.04142">
        <ele>805</ele>
        <time>2026-08-13T06:33:35Z</time>
      </trkpt>
      <trkpt lat="45.02342" lon="4.04116">
        <ele>806</ele>
        <time>2026-08-13T06:34:16Z</time>
      </trkpt>
      <trkpt lat="45.02324" lon="4.04088">
        <ele>806</ele>
        <time>2026-08-13T06:34:51Z</time>
      </trkpt>
      <trkpt lat="45.02315" lon="4.04051">
        <ele>803</ele>
        <time>2026-08-13T06:35:28Z</time>
      </trkpt>
      <trkpt lat="45.02302" lon="4.04013">
        <ele>801</ele>
        <time>2026-08-13T06:36:08Z</time>
      </trkpt>
      <trkpt lat="45.02292" lon="4.03996">
        <ele>800</ele>
        <time>2026-08-13T06:36:29Z</time>
      </trkpt>
      <trkpt lat="45.02292" lon="4.03985">
        <ele>799</ele>
        <time>2026-08-13T06:36:39Z</time>
      </trkpt>
      <trkpt lat="45.02275" lon="4.03935">
        <ele>795</ele>
        <time>2026-08-13T06:37:32Z</time>
      </trkpt>
      <trkpt lat="45.02267" lon="4.03922">
        <ele>794</ele>
        <time>2026-08-13T06:37:48Z</time>
      </trkpt>
      <trkpt lat="45.02231" lon="4.0389">
        <ele>794</ele>
        <time>2026-08-13T06:38:45Z</time>
      </trkpt>
      <trkpt lat="45.02212" lon="4.03867">
        <ele>794</ele>
        <time>2026-08-13T06:39:18Z</time>
      </trkpt>
      <trkpt lat="45.02198" lon="4.03813">
        <ele>793</ele>
        <time>2026-08-13T06:40:12Z</time>
      </trkpt>
      <trkpt lat="45.02196" lon="4.03778">
        <ele>793</ele>
        <time>2026-08-13T06:40:45Z</time>
      </trkpt>
      <trkpt lat="45.02192" lon="4.03767">
        <ele>793</ele>
        <time>2026-08-13T06:40:57Z</time>
      </trkpt>
      <trkpt lat="45.02201" lon="4.0373">
        <ele>793</ele>
        <time>2026-08-13T06:41:34Z</time>
      </trkpt>
      <trkpt lat="45.02201" lon="4.03687">
        <ele>792</ele>
        <time>2026-08-13T06:42:15Z</time>
      </trkpt>
      <trkpt lat="45.02208" lon="4.03643">
        <ele>792</ele>
        <time>2026-08-13T06:42:57Z</time>
      </trkpt>
      <trkpt lat="45.02244" lon="4.03598">
        <ele>792</ele>
        <time>2026-08-13T06:44:01Z</time>
      </trkpt>
      <trkpt lat="45.02247" lon="4.03589">
        <ele>792</ele>
        <time>2026-08-13T06:44:11Z</time>
      </trkpt>
      <trkpt lat="45.0225" lon="4.03496">
        <ele>792</ele>
        <time>2026-08-13T06:45:38Z</time>
      </trkpt>
      <trkpt lat="45.02261" lon="4.03389">
        <ele>793</ele>
        <time>2026-08-13T06:47:20Z</time>
      </trkpt>
      <trkpt lat="45.02264" lon="4.03293">
        <ele>799</ele>
        <time>2026-08-13T06:48:51Z</time>
      </trkpt>
      <trkpt lat="45.0226" lon="4.03287">
        <ele>799</ele>
        <time>2026-08-13T06:48:59Z</time>
      </trkpt>
      <trkpt lat="45.02243" lon="4.03281">
        <ele>800</ele>
        <time>2026-08-13T06:49:22Z</time>
      </trkpt>
      <trkpt lat="45.02186" lon="4.03277">
        <ele>803</ele>
        <time>2026-08-13T06:50:38Z</time>
      </trkpt>
      <trkpt lat="45.0218" lon="4.03274">
        <ele>804</ele>
        <time>2026-08-13T06:50:47Z</time>
      </trkpt>
      <trkpt lat="45.02178" lon="4.03267">
        <ele>805</ele>
        <time>2026-08-13T06:50:54Z</time>
      </trkpt>
      <trkpt lat="45.02214" lon="4.03238">
        <ele>806</ele>
        <time>2026-08-13T06:51:49Z</time>
      </trkpt>
      <trkpt lat="45.02244" lon="4.03199">
        <ele>808</ele>
        <time>2026-08-13T06:52:44Z</time>
      </trkpt>
      <trkpt lat="45.02264" lon="4.03158">
        <ele>810</ele>
        <time>2026-08-13T06:53:31Z</time>
      </trkpt>
      <trkpt lat="45.02269" lon="4.03124">
        <ele>810</ele>
        <time>2026-08-13T06:54:03Z</time>
      </trkpt>
      <trkpt lat="45.02306" lon="4.03033">
        <ele>809</ele>
        <time>2026-08-13T06:55:42Z</time>
      </trkpt>
      <trkpt lat="45.02307" lon="4.03013">
        <ele>809</ele>
        <time>2026-08-13T06:56:01Z</time>
      </trkpt>
      <trkpt lat="45.02293" lon="4.02988">
        <ele>808</ele>
        <time>2026-08-13T06:56:31Z</time>
      </trkpt>
      <trkpt lat="45.02263" lon="4.02968">
        <ele>806</ele>
        <time>2026-08-13T06:57:16Z</time>
      </trkpt>
      <trkpt lat="45.0223" lon="4.02978">
        <ele>807</ele>
        <time>2026-08-13T06:58:01Z</time>
      </trkpt>
      <trkpt lat="45.02198" lon="4.0298">
        <ele>807</ele>
        <time>2026-08-13T06:58:43Z</time>
      </trkpt>
      <trkpt lat="45.02193" lon="4.02977">
        <ele>807</ele>
        <time>2026-08-13T06:58:51Z</time>
      </trkpt>
      <trkpt lat="45.02185" lon="4.02983">
        <ele>808</ele>
        <time>2026-08-13T06:59:03Z</time>
      </trkpt>
      <trkpt lat="45.0218" lon="4.02975">
        <ele>807</ele>
        <time>2026-08-13T06:59:13Z</time>
      </trkpt>
      <trkpt lat="45.02151" lon="4.02952">
        <ele>807</ele>
        <time>2026-08-13T06:59:57Z</time>
      </trkpt>
      <trkpt lat="45.02095" lon="4.02872">
        <ele>805</ele>
        <time>2026-08-13T07:01:43Z</time>
      </trkpt>
      <trkpt lat="45.01978" lon="4.02742">
        <ele>797</ele>
        <time>2026-08-13T07:05:02Z</time>
      </trkpt>
      <trkpt lat="45.01964" lon="4.0272">
        <ele>797</ele>
        <time>2026-08-13T07:05:30Z</time>
      </trkpt>
      <trkpt lat="45.01949" lon="4.02676">
        <ele>796</ele>
        <time>2026-08-13T07:06:16Z</time>
      </trkpt>
      <trkpt lat="45.0193" lon="4.02577">
        <ele>789</ele>
        <time>2026-08-13T07:07:53Z</time>
      </trkpt>
      <trkpt lat="45.01923" lon="4.02495">
        <ele>782</ele>
        <time>2026-08-13T07:09:11Z</time>
      </trkpt>
      <trkpt lat="45.01914" lon="4.02492">
        <ele>782</ele>
        <time>2026-08-13T07:09:23Z</time>
      </trkpt>
      <trkpt lat="45.01905" lon="4.02504">
        <ele>784</ele>
        <time>2026-08-13T07:09:39Z</time>
      </trkpt>
      <trkpt lat="45.019" lon="4.02519">
        <ele>785</ele>
        <time>2026-08-13T07:09:55Z</time>
      </trkpt>
      <trkpt lat="45.01839" lon="4.0263">
        <ele>793</ele>
        <time>2026-08-13T07:12:08Z</time>
      </trkpt>
      <trkpt lat="45.01799" lon="4.02736">
        <ele>793</ele>
        <time>2026-08-13T07:14:01Z</time>
      </trkpt>
      <trkpt lat="45.01771" lon="4.02787">
        <ele>794</ele>
        <time>2026-08-13T07:15:02Z</time>
      </trkpt>
      <trkpt lat="45.01752" lon="4.0284">
        <ele>794</ele>
        <time>2026-08-13T07:15:58Z</time>
      </trkpt>
      <trkpt lat="45.0168" lon="4.02991">
        <ele>800</ele>
        <time>2026-08-13T07:18:50Z</time>
      </trkpt>
      <trkpt lat="45.01683" lon="4.02988">
        <ele>800</ele>
        <time>2026-08-13T07:18:55Z</time>
      </trkpt>
      <trkpt lat="45.01687" lon="4.02981">
        <ele>799</ele>
        <time>2026-08-13T07:19:03Z</time>
      </trkpt>
      <trkpt lat="45.01685" lon="4.02974">
        <ele>798</ele>
        <time>2026-08-13T07:19:10Z</time>
      </trkpt>
      <trkpt lat="45.01671" lon="4.0297">
        <ele>796</ele>
        <time>2026-08-13T07:19:29Z</time>
      </trkpt>
      <trkpt lat="45.01663" lon="4.02972">
        <ele>795</ele>
        <time>2026-08-13T07:19:40Z</time>
      </trkpt>
      <trkpt lat="45.01654" lon="4.02978">
        <ele>795</ele>
        <time>2026-08-13T07:19:54Z</time>
      </trkpt>
      <trkpt lat="45.01651" lon="4.02987">
        <ele>795</ele>
        <time>2026-08-13T07:20:03Z</time>
      </trkpt>
      <trkpt lat="45.01635" lon="4.02997">
        <ele>795</ele>
        <time>2026-08-13T07:20:26Z</time>
      </trkpt>
      <trkpt lat="45.01588" lon="4.03007">
        <ele>789</ele>
        <time>2026-08-13T07:21:30Z</time>
      </trkpt>
      <trkpt lat="45.01527" lon="4.0303">
        <ele>785</ele>
        <time>2026-08-13T07:22:54Z</time>
      </trkpt>
      <trkpt lat="45.01515" lon="4.03029">
        <ele>784</ele>
        <time>2026-08-13T07:23:10Z</time>
      </trkpt>
      <trkpt lat="45.0147" lon="4.03053">
        <ele>779</ele>
        <time>2026-08-13T07:24:14Z</time>
      </trkpt>
      <trkpt lat="45.01459" lon="4.03048">
        <ele>779.2</ele>
      </trkpt>
      <trkpt lat="45.01441" lon="4.03028">
        <ele>777.6</ele>
      </trkpt>
      <trkpt lat="45.01428" lon="4.0301">
        <ele>774</ele>
        <time>2026-08-13T07:36:26Z</time>
      </trkpt>
      <trkpt lat="45.01401" lon="4.02992">
        <ele>771</ele>
        <time>2026-08-13T07:37:06Z</time>
      </trkpt>
      <trkpt lat="45.01372" lon="4.02979">
        <ele>769</ele>
        <time>2026-08-13T07:37:47Z</time>
      </trkpt>
      <trkpt lat="45.01348" lon="4.02958">
        <ele>767</ele>
        <time>2026-08-13T07:38:24Z</time>
      </trkpt>
      <trkpt lat="45.01333" lon="4.02931">
        <ele>765</ele>
        <time>2026-08-13T07:38:57Z</time>
      </trkpt>
      <trkpt lat="45.01308" lon="4.02854">
        <ele>759</ele>
        <time>2026-08-13T07:40:17Z</time>
      </trkpt>
      <trkpt lat="45.0129" lon="4.02827">
        <ele>758</ele>
        <time>2026-08-13T07:40:52Z</time>
      </trkpt>
      <trkpt lat="45.01268" lon="4.02818">
        <ele>757</ele>
        <time>2026-08-13T07:41:22Z</time>
      </trkpt>
      <trkpt lat="45.0122" lon="4.02814">
        <ele>758</ele>
        <time>2026-08-13T07:42:26Z</time>
      </trkpt>
      <trkpt lat="45.01155" lon="4.02801">
        <ele>759</ele>
        <time>2026-08-13T07:43:54Z</time>
      </trkpt>
      <trkpt lat="45.01109" lon="4.02809">
        <ele>762</ele>
        <time>2026-08-13T07:44:56Z</time>
      </trkpt>
      <trkpt lat="45.01078" lon="4.02824">
        <ele>764</ele>
        <time>2026-08-13T07:45:40Z</time>
      </trkpt>
      <trkpt lat="45.01004" lon="4.02808">
        <ele>761</ele>
        <time>2026-08-13T07:47:20Z</time>
      </trkpt>
      <trkpt lat="45.00957" lon="4.02831">
        <ele>758</ele>
        <time>2026-08-13T07:48:26Z</time>
      </trkpt>
      <trkpt lat="45.00925" lon="4.02857">
        <ele>756</ele>
        <time>2026-08-13T07:49:15Z</time>
      </trkpt>
      <trkpt lat="45.00904" lon="4.02865">
        <ele>755</ele>
        <time>2026-08-13T07:49:44Z</time>
      </trkpt>
      <trkpt lat="45.00826" lon="4.02914">
        <ele>756</ele>
        <time>2026-08-13T07:51:38Z</time>
      </trkpt>
      <trkpt lat="45.00837" lon="4.02972">
        <ele>758</ele>
        <time>2026-08-13T07:52:35Z</time>
      </trkpt>
      <trkpt lat="45.00833" lon="4.03122">
        <ele>769</ele>
        <time>2026-08-13T07:54:56Z</time>
      </trkpt>
      <trkpt lat="45.00828" lon="4.03167">
        <ele>772</ele>
        <time>2026-08-13T07:55:39Z</time>
      </trkpt>
      <trkpt lat="45.00813" lon="4.03195">
        <ele>777</ele>
        <time>2026-08-13T07:56:12Z</time>
      </trkpt>
      <trkpt lat="45.00793" lon="4.03212">
        <ele>780</ele>
        <time>2026-08-13T07:56:44Z</time>
      </trkpt>
      <trkpt lat="45.00752" lon="4.03212">
        <ele>782</ele>
        <time>2026-08-13T07:57:38Z</time>
      </trkpt>
      <trkpt lat="45.00746" lon="4.0322">
        <ele>784</ele>
        <time>2026-08-13T07:57:49Z</time>
      </trkpt>
      <trkpt lat="45.00748" lon="4.03234">
        <ele>786</ele>
        <time>2026-08-13T07:58:03Z</time>
      </trkpt>
      <trkpt lat="45.00756" lon="4.03245">
        <ele>788</ele>
        <time>2026-08-13T07:58:18Z</time>
      </trkpt>
      <trkpt lat="45.00774" lon="4.03262">
        <ele>790</ele>
        <time>2026-08-13T07:58:47Z</time>
      </trkpt>
      <trkpt lat="45.00806" lon="4.03277">
        <ele>790</ele>
        <time>2026-08-13T07:59:32Z</time>
      </trkpt>
      <trkpt lat="45.00815" lon="4.03289">
        <ele>791</ele>
        <time>2026-08-13T07:59:48Z</time>
      </trkpt>
      <trkpt lat="45.00805" lon="4.0337">
        <ele>803</ele>
        <time>2026-08-13T08:01:06Z</time>
      </trkpt>
      <trkpt lat="45.0081" lon="4.03449">
        <ele>810</ele>
        <time>2026-08-13T08:02:20Z</time>
      </trkpt>
      <trkpt lat="45.00799" lon="4.03474">
        <ele>813</ele>
        <time>2026-08-13T08:02:48Z</time>
      </trkpt>
      <trkpt lat="45.00753" lon="4.03527">
        <ele>823</ele>
        <time>2026-08-13T08:04:07Z</time>
      </trkpt>
      <trkpt lat="45.00694" lon="4.03634">
        <ele>838</ele>
        <time>2026-08-13T08:06:15Z</time>
      </trkpt>
      <trkpt lat="45.00684" lon="4.03673">
        <ele>843</ele>
        <time>2026-08-13T08:06:55Z</time>
      </trkpt>
      <trkpt lat="45.00651" lon="4.03756">
        <ele>853</ele>
        <time>2026-08-13T08:08:24Z</time>
      </trkpt>
      <trkpt lat="45.0064" lon="4.03799">
        <ele>853</ele>
        <time>2026-08-13T08:09:08Z</time>
      </trkpt>
      <trkpt lat="45.00624" lon="4.03831">
        <ele>855</ele>
        <time>2026-08-13T08:09:45Z</time>
      </trkpt>
      <trkpt lat="45.00618" lon="4.03866">
        <ele>858</ele>
        <time>2026-08-13T08:10:19Z</time>
      </trkpt>
      <trkpt lat="45.00643" lon="4.03957">
        <ele>866</ele>
        <time>2026-08-13T08:11:51Z</time>
      </trkpt>
      <trkpt lat="45.00598" lon="4.03986">
        <ele>870</ele>
        <time>2026-08-13T08:12:57Z</time>
      </trkpt>
      <trkpt lat="45.00567" lon="4.04021">
        <ele>872</ele>
        <time>2026-08-13T08:13:50Z</time>
      </trkpt>
      <trkpt lat="45.00523" lon="4.04054">
        <ele>873</ele>
        <time>2026-08-13T08:14:56Z</time>
      </trkpt>
      <trkpt lat="45.00485" lon="4.04093">
        <ele>875</ele>
        <time>2026-08-13T08:15:59Z</time>
      </trkpt>
      <trkpt lat="45.00464" lon="4.04107">
        <ele>875</ele>
        <time>2026-08-13T08:16:30Z</time>
      </trkpt>
      <trkpt lat="45.00424" lon="4.04152">
        <ele>877</ele>
        <time>2026-08-13T08:17:38Z</time>
      </trkpt>
      <trkpt lat="45.00418" lon="4.04164">
        <ele>878</ele>
        <time>2026-08-13T08:17:52Z</time>
      </trkpt>
      <trkpt lat="45.00406" lon="4.04174">
        <ele>878</ele>
        <time>2026-08-13T08:18:10Z</time>
      </trkpt>
      <trkpt lat="45.00402" lon="4.04187">
        <ele>878</ele>
        <time>2026-08-13T08:18:24Z</time>
      </trkpt>
      <trkpt lat="45.00418" lon="4.04266">
        <ele>883</ele>
        <time>2026-08-13T08:19:41Z</time>
      </trkpt>
      <trkpt lat="45.00445" lon="4.04362">
        <ele>893</ele>
        <time>2026-08-13T08:21:19Z</time>
      </trkpt>
      <trkpt lat="45.00466" lon="4.044">
        <ele>897</ele>
        <time>2026-08-13T08:22:04Z</time>
      </trkpt>
      <trkpt lat="45.00493" lon="4.04437">
        <ele>900</ele>
        <time>2026-08-13T08:22:54Z</time>
      </trkpt>
      <trkpt lat="45.00566" lon="4.045">
        <ele>911</ele>
        <time>2026-08-13T08:24:49Z</time>
      </trkpt>
      <trkpt lat="45.00606" lon="4.04556">
        <ele>912</ele>
        <time>2026-08-13T08:26:04Z</time>
      </trkpt>
      <trkpt lat="45.00628" lon="4.04612">
        <ele>913</ele>
        <time>2026-08-13T08:27:04Z</time>
      </trkpt>
      <trkpt lat="45.0066" lon="4.04676">
        <ele>916</ele>
        <time>2026-08-13T08:28:18Z</time>
      </trkpt>
      <trkpt lat="45.00683" lon="4.04809">
        <ele>912</ele>
        <time>2026-08-13T08:30:27Z</time>
      </trkpt>
      <trkpt lat="45.00697" lon="4.04836">
        <ele>910</ele>
        <time>2026-08-13T08:30:59Z</time>
      </trkpt>
      <trkpt lat="45.00716" lon="4.04858">
        <ele>909</ele>
        <time>2026-08-13T08:31:32Z</time>
      </trkpt>
      <trkpt lat="45.00716" lon="4.04865">
        <ele>909</ele>
        <time>2026-08-13T08:31:38Z</time>
      </trkpt>
      <trkpt lat="45.00661" lon="4.049">
        <ele>904</ele>
        <time>2026-08-13T08:32:59Z</time>
      </trkpt>
      <trkpt lat="45.00652" lon="4.04914">
        <ele>902</ele>
        <time>2026-08-13T08:33:17Z</time>
      </trkpt>
      <trkpt lat="45.0065" lon="4.04931">
        <ele>902</ele>
        <time>2026-08-13T08:33:33Z</time>
      </trkpt>
      <trkpt lat="45.00662" lon="4.0494">
        <ele>904</ele>
        <time>2026-08-13T08:33:51Z</time>
      </trkpt>
      <trkpt lat="45.00665" lon="4.04956">
        <ele>905</ele>
        <time>2026-08-13T08:34:07Z</time>
      </trkpt>
      <trkpt lat="45.0066" lon="4.04984">
        <ele>905</ele>
        <time>2026-08-13T08:34:34Z</time>
      </trkpt>
      <trkpt lat="45.00654" lon="4.04988">
        <ele>904</ele>
        <time>2026-08-13T08:34:43Z</time>
      </trkpt>
      <trkpt lat="45.0063" lon="4.04976">
        <ele>901</ele>
        <time>2026-08-13T08:35:17Z</time>
      </trkpt>
      <trkpt lat="45.00605" lon="4.04984">
        <ele>898</ele>
        <time>2026-08-13T08:35:51Z</time>
      </trkpt>
      <trkpt lat="45.00579" lon="4.05006">
        <ele>897</ele>
        <time>2026-08-13T08:36:31Z</time>
      </trkpt>
      <trkpt lat="45.00558" lon="4.05032">
        <ele>903</ele>
        <time>2026-08-13T08:37:08Z</time>
      </trkpt>
      <trkpt lat="45.00533" lon="4.05048">
        <ele>906</ele>
        <time>2026-08-13T08:37:45Z</time>
      </trkpt>
      <trkpt lat="45.0047" lon="4.05118">
        <ele>919</ele>
        <time>2026-08-13T08:39:32Z</time>
      </trkpt>
      <trkpt lat="45.00446" lon="4.05162">
        <ele>924</ele>
        <time>2026-08-13T08:40:24Z</time>
      </trkpt>
      <trkpt lat="45.00436" lon="4.05207">
        <ele>926</ele>
        <time>2026-08-13T08:41:09Z</time>
      </trkpt>
      <trkpt lat="45.00435" lon="4.05252">
        <ele>929</ele>
        <time>2026-08-13T08:41:51Z</time>
      </trkpt>
      <trkpt lat="45.00426" lon="4.05285">
        <ele>928</ele>
        <time>2026-08-13T08:42:25Z</time>
      </trkpt>
      <trkpt lat="45.00403" lon="4.05298">
        <ele>925</ele>
        <time>2026-08-13T08:42:58Z</time>
      </trkpt>
      <trkpt lat="45.00357" lon="4.0534">
        <ele>916</ele>
        <time>2026-08-13T08:44:11Z</time>
      </trkpt>
      <trkpt lat="45.00349" lon="4.05371">
        <ele>916</ele>
        <time>2026-08-13T08:44:42Z</time>
      </trkpt>
      <trkpt lat="45.00344" lon="4.05377">
        <ele>916</ele>
        <time>2026-08-13T08:44:51Z</time>
      </trkpt>
      <trkpt lat="45.00335" lon="4.05379">
        <ele>915</ele>
        <time>2026-08-13T08:45:03Z</time>
      </trkpt>
      <trkpt lat="45.00321" lon="4.05413">
        <ele>918</ele>
        <time>2026-08-13T08:45:40Z</time>
      </trkpt>
      <trkpt lat="45.0032" lon="4.05426">
        <ele>919</ele>
        <time>2026-08-13T08:45:52Z</time>
      </trkpt>
      <trkpt lat="45.00321" lon="4.05419">
        <ele>919</ele>
        <time>2026-08-13T08:45:59Z</time>
      </trkpt>
      <trkpt lat="45.00329" lon="4.05426">
        <ele>919</ele>
        <time>2026-08-13T08:46:12Z</time>
      </trkpt>
      <trkpt lat="45.00329" lon="4.05452">
        <ele>922</ele>
        <time>2026-08-13T08:46:36Z</time>
      </trkpt>
      <trkpt lat="45.00314" lon="4.05481">
        <ele>925</ele>
        <time>2026-08-13T08:47:10Z</time>
      </trkpt>
      <trkpt lat="45.00308" lon="4.05484">
        <ele>925</ele>
        <time>2026-08-13T08:47:19Z</time>
      </trkpt>
      <trkpt lat="45.00287" lon="4.05483">
        <ele>926</ele>
        <time>2026-08-13T08:47:47Z</time>
      </trkpt>
      <trkpt lat="45.00256" lon="4.05468">
        <ele>925</ele>
        <time>2026-08-13T08:48:30Z</time>
      </trkpt>
      <trkpt lat="45.00237" lon="4.05433">
        <ele>921</ele>
        <time>2026-08-13T08:49:12Z</time>
      </trkpt>
      <trkpt lat="45.00194" lon="4.05382">
        <ele>915</ele>
        <time>2026-08-13T08:50:27Z</time>
      </trkpt>
      <trkpt lat="45.00192" lon="4.05353">
        <ele>914</ele>
        <time>2026-08-13T08:50:54Z</time>
      </trkpt>
      <trkpt lat="45.00185" lon="4.05339">
        <ele>914</ele>
        <time>2026-08-13T08:51:11Z</time>
      </trkpt>
      <trkpt lat="45.00187" lon="4.05335">
        <ele>914</ele>
        <time>2026-08-13T08:51:15Z</time>
      </trkpt>
      <trkpt lat="45.00192" lon="4.05376">
        <ele>915</ele>
        <time>2026-08-13T08:51:54Z</time>
      </trkpt>
      <trkpt lat="45.00199" lon="4.05392">
        <ele>916</ele>
        <time>2026-08-13T08:52:12Z</time>
      </trkpt>
      <trkpt lat="45.00213" lon="4.05411">
        <ele>918</ele>
        <time>2026-08-13T08:52:38Z</time>
      </trkpt>
      <trkpt lat="45.00243" lon="4.05439">
        <ele>922</ele>
        <time>2026-08-13T08:53:26Z</time>
      </trkpt>
      <trkpt lat="45.00249" lon="4.05451">
        <ele>924</ele>
        <time>2026-08-13T08:53:40Z</time>
      </trkpt>
      <trkpt lat="45.00256" lon="4.05474">
        <ele>926</ele>
        <time>2026-08-13T08:54:04Z</time>
      </trkpt>
      <trkpt lat="45.00256" lon="4.05505">
        <ele>928</ele>
        <time>2026-08-13T08:54:33Z</time>
      </trkpt>
      <trkpt lat="45.00289" lon="4.05537">
        <ele>930</ele>
        <time>2026-08-13T08:55:26Z</time>
      </trkpt>
      <trkpt lat="45.00293" lon="4.05537">
        <ele>930</ele>
        <time>2026-08-13T08:55:32Z</time>
      </trkpt>
      <trkpt lat="45.00313" lon="4.05579">
        <ele>933</ele>
        <time>2026-08-13T08:56:19Z</time>
      </trkpt>
      <trkpt lat="45.00334" lon="4.05661">
        <ele>939</ele>
        <time>2026-08-13T08:57:42Z</time>
      </trkpt>
      <trkpt lat="45.00338" lon="4.05703">
        <ele>945</ele>
        <time>2026-08-13T08:58:22Z</time>
      </trkpt>
      <trkpt lat="45.00372" lon="4.05726">
        <ele>950</ele>
        <time>2026-08-13T08:59:12Z</time>
      </trkpt>
      <trkpt lat="45.00422" lon="4.05736">
        <ele>955</ele>
        <time>2026-08-13T09:00:19Z</time>
      </trkpt>
      <trkpt lat="45.00451" lon="4.05735">
        <ele>958</ele>
        <time>2026-08-13T09:00:58Z</time>
      </trkpt>
      <trkpt lat="45.00455" lon="4.05744">
        <ele>959</ele>
        <time>2026-08-13T09:01:08Z</time>
      </trkpt>
      <trkpt lat="45.00425" lon="4.05765">
        <ele>958</ele>
        <time>2026-08-13T09:01:53Z</time>
      </trkpt>
      <trkpt lat="45.004" lon="4.05789">
        <ele>959</ele>
        <time>2026-08-13T09:02:33Z</time>
      </trkpt>
      <trkpt lat="45.00382" lon="4.05797">
        <ele>959</ele>
        <time>2026-08-13T09:02:58Z</time>
      </trkpt>
      <trkpt lat="45.00333" lon="4.05803">
        <ele>957</ele>
        <time>2026-08-13T09:04:04Z</time>
      </trkpt>
      <trkpt lat="45.00318" lon="4.05811">
        <ele>957</ele>
        <time>2026-08-13T09:04:25Z</time>
      </trkpt>
      <trkpt lat="45.00312" lon="4.05809">
        <ele>957</ele>
        <time>2026-08-13T09:04:33Z</time>
      </trkpt>
      <trkpt lat="45.00284" lon="4.0582">
        <ele>957</ele>
        <time>2026-08-13T09:05:12Z</time>
      </trkpt>
      <trkpt lat="45.00254" lon="4.05838">
        <ele>958</ele>
        <time>2026-08-13T09:05:56Z</time>
      </trkpt>
      <trkpt lat="45.0021" lon="4.05873">
        <ele>960</ele>
        <time>2026-08-13T09:07:03Z</time>
      </trkpt>
      <trkpt lat="45.00178" lon="4.05885">
        <ele>961</ele>
        <time>2026-08-13T09:07:47Z</time>
      </trkpt>
      <trkpt lat="45.00133" lon="4.05911">
        <ele>961</ele>
        <time>2026-08-13T09:08:52Z</time>
      </trkpt>
      <trkpt lat="45.00035" lon="4.05992">
        <ele>962</ele>
        <time>2026-08-13T09:11:24Z</time>
      </trkpt>
      <trkpt lat="45.00018" lon="4.06002">
        <ele>961</ele>
        <time>2026-08-13T09:11:48Z</time>
      </trkpt>
      <trkpt lat="44.99998" lon="4.06005">
        <ele>960</ele>
        <time>2026-08-13T09:12:15Z</time>
      </trkpt>
      <trkpt lat="44.99962" lon="4.0602">
        <ele>959</ele>
        <time>2026-08-13T09:13:05Z</time>
      </trkpt>
      <trkpt lat="44.99914" lon="4.06051">
        <ele>958</ele>
        <time>2026-08-13T09:14:16Z</time>
      </trkpt>
      <trkpt lat="44.99819" lon="4.06141">
        <ele>954</ele>
        <time>2026-08-13T09:16:48Z</time>
      </trkpt>
      <trkpt lat="44.99814" lon="4.06149">
        <ele>954</ele>
        <time>2026-08-13T09:16:58Z</time>
      </trkpt>
      <trkpt lat="44.99812" lon="4.06167">
        <ele>954</ele>
        <time>2026-08-13T09:17:15Z</time>
      </trkpt>
      <trkpt lat="44.9982" lon="4.06198">
        <ele>955</ele>
        <time>2026-08-13T09:17:47Z</time>
      </trkpt>
      <trkpt lat="44.99825" lon="4.06201">
        <ele>955</ele>
        <time>2026-08-13T09:17:54Z</time>
      </trkpt>
      <trkpt lat="44.99819" lon="4.06208">
        <ele>955</ele>
        <time>2026-08-13T09:18:04Z</time>
      </trkpt>
      <trkpt lat="44.99818" lon="4.06199">
        <ele>955</ele>
        <time>2026-08-13T09:18:13Z</time>
      </trkpt>
      <trkpt lat="44.99824" lon="4.06199">
        <ele>955</ele>
        <time>2026-08-13T09:18:21Z</time>
      </trkpt>
      <trkpt lat="44.99814" lon="4.06236">
        <ele>955</ele>
        <time>2026-08-13T09:18:58Z</time>
      </trkpt>
      <trkpt lat="44.99816" lon="4.06241">
        <ele>955</ele>
        <time>2026-08-13T09:19:04Z</time>
      </trkpt>
      <trkpt lat="44.99756" lon="4.06373">
        <ele>940</ele>
        <time>2026-08-13T09:21:32Z</time>
      </trkpt>
      <trkpt lat="44.99756" lon="4.0641">
        <ele>938</ele>
        <time>2026-08-13T09:22:07Z</time>
      </trkpt>
      <trkpt lat="44.99774" lon="4.06463">
        <ele>944</ele>
        <time>2026-08-13T09:23:02Z</time>
      </trkpt>
      <trkpt lat="44.99778" lon="4.06482">
        <ele>945</ele>
        <time>2026-08-13T09:23:21Z</time>
      </trkpt>
      <trkpt lat="44.99775" lon="4.06494">
        <ele>945</ele>
        <time>2026-08-13T09:23:33Z</time>
      </trkpt>
      <trkpt lat="44.99762" lon="4.06506">
        <ele>943</ele>
        <time>2026-08-13T09:23:53Z</time>
      </trkpt>
      <trkpt lat="44.99746" lon="4.06508">
        <ele>940</ele>
        <time>2026-08-13T09:24:15Z</time>
      </trkpt>
      <trkpt lat="44.9972" lon="4.06506">
        <ele>936</ele>
        <time>2026-08-13T09:24:50Z</time>
      </trkpt>
      <trkpt lat="44.99683" lon="4.06497">
        <ele>931</ele>
        <time>2026-08-13T09:25:40Z</time>
      </trkpt>
      <trkpt lat="44.99677" lon="4.06501">
        <ele>930</ele>
        <time>2026-08-13T09:25:49Z</time>
      </trkpt>
      <trkpt lat="44.99676" lon="4.06522">
        <ele>931</ele>
        <time>2026-08-13T09:26:08Z</time>
      </trkpt>
      <trkpt lat="44.99683" lon="4.06549">
        <ele>935</ele>
        <time>2026-08-13T09:26:36Z</time>
      </trkpt>
      <trkpt lat="44.99677" lon="4.06591">
        <ele>936</ele>
        <time>2026-08-13T09:27:16Z</time>
      </trkpt>
      <trkpt lat="44.99665" lon="4.06617">
        <ele>935</ele>
        <time>2026-08-13T09:27:45Z</time>
      </trkpt>
      <trkpt lat="44.99634" lon="4.06661">
        <ele>924</ele>
        <time>2026-08-13T09:28:44Z</time>
      </trkpt>
      <trkpt lat="44.99629" lon="4.06721">
        <ele>925</ele>
        <time>2026-08-13T09:29:41Z</time>
      </trkpt>
      <trkpt lat="44.99662" lon="4.06823">
        <ele>937</ele>
        <time>2026-08-13T09:31:27Z</time>
      </trkpt>
      <trkpt lat="44.99709" lon="4.06882">
        <ele>947</ele>
        <time>2026-08-13T09:32:51Z</time>
      </trkpt>
      <trkpt lat="44.99754" lon="4.06976">
        <ele>957</ele>
        <time>2026-08-13T09:34:38Z</time>
      </trkpt>
      <trkpt lat="44.99768" lon="4.07027">
        <ele>958</ele>
        <time>2026-08-13T09:35:29Z</time>
      </trkpt>
      <trkpt lat="44.99774" lon="4.07117">
        <ele>951</ele>
        <time>2026-08-13T09:36:55Z</time>
      </trkpt>
      <trkpt lat="44.99782" lon="4.07152">
        <ele>948</ele>
        <time>2026-08-13T09:37:29Z</time>
      </trkpt>
      <trkpt lat="44.99789" lon="4.07159">
        <ele>949</ele>
        <time>2026-08-13T09:37:41Z</time>
      </trkpt>
      <trkpt lat="44.99798" lon="4.07159">
        <ele>951</ele>
        <time>2026-08-13T09:37:53Z</time>
      </trkpt>
      <trkpt lat="44.99834" lon="4.07122">
        <ele>970</ele>
        <time>2026-08-13T09:38:52Z</time>
      </trkpt>
      <trkpt lat="44.99882" lon="4.07088">
        <ele>986</ele>
        <time>2026-08-13T09:40:04Z</time>
      </trkpt>
      <trkpt lat="44.99916" lon="4.07084">
        <ele>992</ele>
        <time>2026-08-13T09:40:49Z</time>
      </trkpt>
      <trkpt lat="44.99926" lon="4.07087">
        <ele>994</ele>
        <time>2026-08-13T09:41:03Z</time>
      </trkpt>
      <trkpt lat="44.99936" lon="4.07097">
        <ele>995</ele>
        <time>2026-08-13T09:41:19Z</time>
      </trkpt>
      <trkpt lat="44.99935" lon="4.07114">
        <ele>993</ele>
        <time>2026-08-13T09:41:36Z</time>
      </trkpt>
      <trkpt lat="44.99914" lon="4.07157">
        <ele>978</ele>
        <time>2026-08-13T09:42:25Z</time>
      </trkpt>
      <trkpt lat="44.99904" lon="4.07221">
        <ele>972</ele>
        <time>2026-08-13T09:43:27Z</time>
      </trkpt>
      <trkpt lat="44.999" lon="4.07276">
        <ele>970</ele>
        <time>2026-08-13T09:44:19Z</time>
      </trkpt>
      <trkpt lat="44.99906" lon="4.0732">
        <ele>975</ele>
        <time>2026-08-13T09:45:01Z</time>
      </trkpt>
      <trkpt lat="44.99907" lon="4.07374">
        <ele>977</ele>
        <time>2026-08-13T09:45:52Z</time>
      </trkpt>
      <trkpt lat="44.99901" lon="4.07443">
        <ele>973</ele>
        <time>2026-08-13T09:46:58Z</time>
      </trkpt>
      <trkpt lat="44.99906" lon="4.07444">
        <ele>976</ele>
        <time>2026-08-13T09:47:04Z</time>
      </trkpt>
      <trkpt lat="44.99912" lon="4.07436">
        <ele>980</ele>
        <time>2026-08-13T09:47:15Z</time>
      </trkpt>
      <trkpt lat="44.99918" lon="4.07435">
        <ele>983</ele>
        <time>2026-08-13T09:47:24Z</time>
      </trkpt>
      <trkpt lat="44.99968" lon="4.07453">
        <ele>998</ele>
        <time>2026-08-13T09:48:32Z</time>
      </trkpt>
      <trkpt lat="44.99987" lon="4.0745">
        <ele>1005</ele>
        <time>2026-08-13T09:48:58Z</time>
      </trkpt>
      <trkpt lat="45.00013" lon="4.07456">
        <ele>1011</ele>
        <time>2026-08-13T09:49:33Z</time>
      </trkpt>
      <trkpt lat="45.00043" lon="4.07473">
        <ele>1016</ele>
        <time>2026-08-13T09:50:16Z</time>
      </trkpt>
      <trkpt lat="45.00069" lon="4.07504">
        <ele>1014</ele>
        <time>2026-08-13T09:51:02Z</time>
      </trkpt>
      <trkpt lat="45.00094" lon="4.07524">
        <ele>1016</ele>
        <time>2026-08-13T09:51:40Z</time>
      </trkpt>
      <trkpt lat="45.00115" lon="4.07527">
        <ele>1024</ele>
        <time>2026-08-13T09:52:08Z</time>
      </trkpt>
      <trkpt lat="45.00122" lon="4.07538">
        <ele>1023</ele>
        <time>2026-08-13T09:52:22Z</time>
      </trkpt>
      <trkpt lat="45.00127" lon="4.07559">
        <ele>1020</ele>
        <time>2026-08-13T09:52:43Z</time>
      </trkpt>
      <trkpt lat="45.00127" lon="4.07597">
        <ele>1010</ele>
        <time>2026-08-13T09:53:19Z</time>
      </trkpt>
      <trkpt lat="45.00136" lon="4.07632">
        <ele>1009</ele>
        <time>2026-08-13T09:53:54Z</time>
      </trkpt>
      <trkpt lat="45.00146" lon="4.07647">
        <ele>1013</ele>
        <time>2026-08-13T09:54:13Z</time>
      </trkpt>
      <trkpt lat="45.00164" lon="4.0765">
        <ele>1023</ele>
        <time>2026-08-13T09:54:38Z</time>
      </trkpt>
      <trkpt lat="45.00187" lon="4.07672">
        <ele>1032</ele>
        <time>2026-08-13T09:55:15Z</time>
      </trkpt>
      <trkpt lat="45.00196" lon="4.07737">
        <ele>1033</ele>
        <time>2026-08-13T09:56:17Z</time>
      </trkpt>
      <trkpt lat="45.00203" lon="4.07762">
        <ele>1037</ele>
        <time>2026-08-13T09:56:42Z</time>
      </trkpt>
      <trkpt lat="45.00202" lon="4.07786">
        <ele>1037</ele>
        <time>2026-08-13T09:57:05Z</time>
      </trkpt>
      <trkpt lat="45.00191" lon="4.07833">
        <ele>1033</ele>
        <time>2026-08-13T09:57:52Z</time>
      </trkpt>
      <trkpt lat="45.00194" lon="4.07959">
        <ele>1037</ele>
        <time>2026-08-13T09:59:51Z</time>
      </trkpt>
      <trkpt lat="45.00214" lon="4.08036">
        <ele>1045</ele>
        <time>2026-08-13T10:01:08Z</time>
      </trkpt>
      <trkpt lat="45.00218" lon="4.08124">
        <ele>1043</ele>
        <time>2026-08-13T10:02:31Z</time>
      </trkpt>
      <trkpt lat="45.00223" lon="4.08146">
        <ele>1043</ele>
        <time>2026-08-13T10:02:53Z</time>
      </trkpt>
      <trkpt lat="45.00234" lon="4.08168">
        <ele>1045</ele>
        <time>2026-08-13T10:03:19Z</time>
      </trkpt>
      <trkpt lat="45.00244" lon="4.08176">
        <ele>1046</ele>
        <time>2026-08-13T10:03:34Z</time>
      </trkpt>
      <trkpt lat="45.00252" lon="4.08173">
        <ele>1049</ele>
        <time>2026-08-13T10:03:45Z</time>
      </trkpt>
      <trkpt lat="45.00271" lon="4.08131">
        <ele>1058</ele>
        <time>2026-08-13T10:04:32Z</time>
      </trkpt>
      <trkpt lat="45.00305" lon="4.08077">
        <ele>1073</ele>
        <time>2026-08-13T10:05:40Z</time>
      </trkpt>
      <trkpt lat="45.00324" lon="4.08054">
        <ele>1079</ele>
        <time>2026-08-13T10:06:14Z</time>
      </trkpt>
      <trkpt lat="45.00334" lon="4.08015">
        <ele>1086</ele>
        <time>2026-08-13T10:06:53Z</time>
      </trkpt>
      <trkpt lat="45.00329" lon="4.07966">
        <ele>1088</ele>
        <time>2026-08-13T10:07:40Z</time>
      </trkpt>
      <trkpt lat="45.00342" lon="4.07919">
        <ele>1092</ele>
        <time>2026-08-13T10:08:27Z</time>
      </trkpt>
      <trkpt lat="45.0034" lon="4.07905">
        <ele>1092</ele>
        <time>2026-08-13T10:08:41Z</time>
      </trkpt>
      <trkpt lat="45.00328" lon="4.07884">
        <ele>1092</ele>
        <time>2026-08-13T10:09:06Z</time>
      </trkpt>
      <trkpt lat="45.00322" lon="4.07855">
        <ele>1091</ele>
        <time>2026-08-13T10:09:35Z</time>
      </trkpt>
      <trkpt lat="45.00332" lon="4.0783">
        <ele>1095</ele>
        <time>2026-08-13T10:10:02Z</time>
      </trkpt>
      <trkpt lat="45.00374" lon="4.07787">
        <ele>1097</ele>
        <time>2026-08-13T10:11:11Z</time>
      </trkpt>
      <trkpt lat="45.00412" lon="4.07887">
        <ele>1091</ele>
        <time>2026-08-13T10:12:58Z</time>
      </trkpt>
      <trkpt lat="45.00506" lon="4.08092">
        <ele>1081</ele>
        <time>2026-08-13T10:16:49Z</time>
      </trkpt>
      <trkpt lat="45.00567" lon="4.0817">
        <ele>1079</ele>
        <time>2026-08-13T10:18:38Z</time>
      </trkpt>
      <trkpt lat="45.00576" lon="4.08178">
        <ele>1079</ele>
        <time>2026-08-13T10:18:53Z</time>
      </trkpt>
      <trkpt lat="45.00582" lon="4.08178">
        <ele>1079</ele>
        <time>2026-08-13T10:19:01Z</time>
      </trkpt>
      <trkpt lat="45.00609" lon="4.0821">
        <ele>1078</ele>
        <time>2026-08-13T10:19:48Z</time>
      </trkpt>
      <trkpt lat="45.00709" lon="4.08308">
        <ele>1073</ele>
        <time>2026-08-13T10:22:30Z</time>
      </trkpt>
      <trkpt lat="45.00756" lon="4.08374">
        <ele>1069</ele>
        <time>2026-08-13T10:23:58Z</time>
      </trkpt>
      <trkpt lat="45.00785" lon="4.08436">
        <ele>1065</ele>
        <time>2026-08-13T10:25:08Z</time>
      </trkpt>
      <trkpt lat="45.00804" lon="4.08467">
        <ele>1063</ele>
        <time>2026-08-13T10:25:47Z</time>
      </trkpt>
      <trkpt lat="45.00812" lon="4.08507">
        <ele>1061</ele>
        <time>2026-08-13T10:26:26Z</time>
      </trkpt>
      <trkpt lat="45.00818" lon="4.08513">
        <ele>1061</ele>
        <time>2026-08-13T10:26:36Z</time>
      </trkpt>
      <trkpt lat="45.00819" lon="4.0851">
        <ele>1061</ele>
        <time>2026-08-13T10:26:39Z</time>
      </trkpt>
      <trkpt lat="45.00816" lon="4.08525">
        <ele>1061</ele>
        <time>2026-08-13T10:26:54Z</time>
      </trkpt>
      <trkpt lat="45.00829" lon="4.08586">
        <ele>1061</ele>
        <time>2026-08-13T10:27:54Z</time>
      </trkpt>
      <trkpt lat="45.00835" lon="4.08598">
        <ele>1060</ele>
        <time>2026-08-13T10:28:08Z</time>
      </trkpt>
      <trkpt lat="45.00889" lon="4.08825">
        <ele>1056</ele>
        <time>2026-08-13T10:31:54Z</time>
      </trkpt>
      <trkpt lat="45.00967" lon="4.09081">
        <ele>1078</ele>
        <time>2026-08-13T10:36:17Z</time>
      </trkpt>
      <trkpt lat="45.00979" lon="4.09087">
        <ele>1080</ele>
        <time>2026-08-13T10:36:34Z</time>
      </trkpt>
      <trkpt lat="45.01003" lon="4.09087">
        <ele>1082</ele>
        <time>2026-08-13T10:37:06Z</time>
      </trkpt>
      <trkpt lat="45.01024" lon="4.09098">
        <ele>1086</ele>
        <time>2026-08-13T10:37:36Z</time>
      </trkpt>
      <trkpt lat="45.01043" lon="4.09123">
        <ele>1090</ele>
        <time>2026-08-13T10:38:10Z</time>
      </trkpt>
      <trkpt lat="45.01055" lon="4.0915">
        <ele>1095</ele>
        <time>2026-08-13T10:38:41Z</time>
      </trkpt>
      <trkpt lat="45.01078" lon="4.09163">
        <ele>1103</ele>
        <time>2026-08-13T10:39:14Z</time>
      </trkpt>
      <trkpt lat="45.01121" lon="4.0916">
        <ele>1110</ele>
        <time>2026-08-13T10:40:11Z</time>
      </trkpt>
      <trkpt lat="45.01146" lon="4.09164">
        <ele>1114</ele>
        <time>2026-08-13T10:40:45Z</time>
      </trkpt>
      <trkpt lat="45.01158" lon="4.09152">
        <ele>1113</ele>
        <time>2026-08-13T10:41:04Z</time>
      </trkpt>
      <trkpt lat="45.01168" lon="4.09148">
        <ele>1114</ele>
        <time>2026-08-13T10:41:18Z</time>
      </trkpt>
      <trkpt lat="45.01217" lon="4.09147">
        <ele>1116</ele>
        <time>2026-08-13T10:42:23Z</time>
      </trkpt>
      <trkpt lat="45.0123" lon="4.09152">
        <ele>1117</ele>
        <time>2026-08-13T10:42:41Z</time>
      </trkpt>
      <trkpt lat="45.01288" lon="4.09226">
        <ele>1127</ele>
        <time>2026-08-13T10:44:26Z</time>
      </trkpt>
      <trkpt lat="45.01311" lon="4.09284">
        <ele>1131</ele>
        <time>2026-08-13T10:45:28Z</time>
      </trkpt>
      <trkpt lat="45.01352" lon="4.0937">
        <ele>1135</ele>
        <time>2026-08-13T10:47:06Z</time>
      </trkpt>
      <trkpt lat="45.01354" lon="4.09385">
        <ele>1136</ele>
        <time>2026-08-13T10:47:21Z</time>
      </trkpt>
      <trkpt lat="45.0135" lon="4.09395">
        <ele>1138</ele>
        <time>2026-08-13T10:47:32Z</time>
      </trkpt>
      <trkpt lat="45.01355" lon="4.09412">
        <ele>1140</ele>
        <time>2026-08-13T10:47:49Z</time>
      </trkpt>
      <trkpt lat="45.0142" lon="4.09488">
        <ele>1137</ele>
        <time>2026-08-13T10:49:41Z</time>
      </trkpt>
      <trkpt lat="45.0146" lon="4.09569">
        <ele>1142</ele>
        <time>2026-08-13T10:51:15Z</time>
      </trkpt>
      <trkpt lat="45.01466" lon="4.09594">
        <ele>1145</ele>
        <time>2026-08-13T10:51:40Z</time>
      </trkpt>
      <trkpt lat="45.01476" lon="4.09648">
        <ele>1150</ele>
        <time>2026-08-13T10:52:32Z</time>
      </trkpt>
      <trkpt lat="45.01477" lon="4.09712">
        <ele>1158</ele>
        <time>2026-08-13T10:53:33Z</time>
      </trkpt>
      <trkpt lat="45.01482" lon="4.09747">
        <ele>1161</ele>
        <time>2026-08-13T10:54:06Z</time>
      </trkpt>
      <trkpt lat="45.01515" lon="4.09876">
        <ele>1161</ele>
        <time>2026-08-13T10:56:16Z</time>
      </trkpt>
      <trkpt lat="45.01526" lon="4.09968">
        <ele>1157</ele>
        <time>2026-08-13T10:57:44Z</time>
      </trkpt>
      <trkpt lat="45.01523" lon="4.10035">
        <ele>1152</ele>
        <time>2026-08-13T10:58:47Z</time>
      </trkpt>
      <trkpt lat="45.01504" lon="4.10092">
        <ele>1149</ele>
        <time>2026-08-13T10:59:47Z</time>
      </trkpt>
      <trkpt lat="45.01499" lon="4.10134">
        <ele>1140</ele>
        <time>2026-08-13T11:00:27Z</time>
      </trkpt>
      <trkpt lat="45.015" lon="4.1015">
        <ele>1137</ele>
        <time>2026-08-13T11:00:42Z</time>
      </trkpt>
      <trkpt lat="45.01511" lon="4.1018">
        <ele>1130</ele>
        <time>2026-08-13T11:01:14Z</time>
      </trkpt>
      <trkpt lat="45.0152" lon="4.10189">
        <ele>1128</ele>
        <time>2026-08-13T11:01:28Z</time>
      </trkpt>
      <trkpt lat="45.01523" lon="4.102">
        <ele>1127</ele>
        <time>2026-08-13T11:01:40Z</time>
      </trkpt>
      <trkpt lat="45.01529" lon="4.10235">
        <ele>1124</ele>
        <time>2026-08-13T11:02:14Z</time>
      </trkpt>
      <trkpt lat="45.01526" lon="4.10246">
        <ele>1124</ele>
        <time>2026-08-13T11:02:25Z</time>
      </trkpt>
      <trkpt lat="45.01543" lon="4.10234">
        <ele>1123</ele>
        <time>2026-08-13T11:02:50Z</time>
      </trkpt>
      <trkpt lat="45.01551" lon="4.10221">
        <ele>1123</ele>
        <time>2026-08-13T11:03:06Z</time>
      </trkpt>
      <trkpt lat="45.01593" lon="4.1012">
        <ele>1119</ele>
        <time>2026-08-13T11:04:57Z</time>
      </trkpt>
      <trkpt lat="45.01629" lon="4.1005">
        <ele>1112</ele>
        <time>2026-08-13T11:06:18Z</time>
      </trkpt>
      <trkpt lat="45.0165" lon="4.09959">
        <ele>1105</ele>
        <time>2026-08-13T11:07:49Z</time>
      </trkpt>
      <trkpt lat="45.01654" lon="4.09909">
        <ele>1101</ele>
        <time>2026-08-13T11:08:36Z</time>
      </trkpt>
      <trkpt lat="45.01672" lon="4.09824">
        <ele>1088</ele>
        <time>2026-08-13T11:10:00Z</time>
      </trkpt>
      <trkpt lat="45.01682" lon="4.09806">
        <ele>1084</ele>
        <time>2026-08-13T11:10:22Z</time>
      </trkpt>
      <trkpt lat="45.01707" lon="4.09776">
        <ele>1075</ele>
        <time>2026-08-13T11:11:05Z</time>
      </trkpt>
      <trkpt lat="45.0172" lon="4.09714">
        <ele>1066</ele>
        <time>2026-08-13T11:12:06Z</time>
      </trkpt>
      <trkpt lat="45.0175" lon="4.09625">
        <ele>1051</ele>
        <time>2026-08-13T11:13:39Z</time>
      </trkpt>
      <trkpt lat="45.01776" lon="4.09572">
        <ele>1043</ele>
        <time>2026-08-13T11:14:40Z</time>
      </trkpt>
      <trkpt lat="45.01773" lon="4.09568">
        <ele>1043</ele>
        <time>2026-08-13T11:14:46Z</time>
      </trkpt>
      <trkpt lat="45.01782" lon="4.09535">
        <ele>1040</ele>
        <time>2026-08-13T11:15:19Z</time>
      </trkpt>
      <trkpt lat="45.01793" lon="4.09512">
        <ele>1036</ele>
        <time>2026-08-13T11:15:45Z</time>
      </trkpt>
      <trkpt lat="45.01828" lon="4.09462">
        <ele>1023</ele>
        <time>2026-08-13T11:16:52Z</time>
      </trkpt>
      <trkpt lat="45.01834" lon="4.09439">
        <ele>1019</ele>
        <time>2026-08-13T11:17:15Z</time>
      </trkpt>
      <trkpt lat="45.01845" lon="4.09417">
        <ele>1014</ele>
        <time>2026-08-13T11:17:40Z</time>
      </trkpt>
      <trkpt lat="45.01854" lon="4.09413">
        <ele>1012</ele>
        <time>2026-08-13T11:17:53Z</time>
      </trkpt>
      <trkpt lat="45.01863" lon="4.09416">
        <ele>1010</ele>
        <time>2026-08-13T11:18:05Z</time>
      </trkpt>
      <trkpt lat="45.01883" lon="4.09452">
        <ele>1009</ele>
        <time>2026-08-13T11:18:48Z</time>
      </trkpt>
      <trkpt lat="45.01892" lon="4.09459">
        <ele>1007</ele>
        <time>2026-08-13T11:19:02Z</time>
      </trkpt>
      <trkpt lat="45.01908" lon="4.09465">
        <ele>1004</ele>
        <time>2026-08-13T11:19:24Z</time>
      </trkpt>
      <trkpt lat="45.01935" lon="4.09464">
        <ele>998</ele>
        <time>2026-08-13T11:20:00Z</time>
      </trkpt>
      <trkpt lat="45.01956" lon="4.09473">
        <ele>993</ele>
        <time>2026-08-13T11:20:29Z</time>
      </trkpt>
      <trkpt lat="45.01968" lon="4.09497">
        <ele>992</ele>
        <time>2026-08-13T11:20:57Z</time>
      </trkpt>
      <trkpt lat="45.01983" lon="4.09555">
        <ele>993</ele>
        <time>2026-08-13T11:21:55Z</time>
      </trkpt>
      <trkpt lat="45.02001" lon="4.09575">
        <ele>990</ele>
        <time>2026-08-13T11:22:26Z</time>
      </trkpt>
      <trkpt lat="45.02049" lon="4.09593">
        <ele>986</ele>
        <time>2026-08-13T11:23:32Z</time>
      </trkpt>
      <trkpt lat="45.0207" lon="4.09605">
        <ele>985</ele>
        <time>2026-08-13T11:24:02Z</time>
      </trkpt>
      <trkpt lat="45.02092" lon="4.09602">
        <ele>983</ele>
        <time>2026-08-13T11:24:32Z</time>
      </trkpt>
      <trkpt lat="45.0211" lon="4.09591">
        <ele>983</ele>
        <time>2026-08-13T11:24:58Z</time>
      </trkpt>
      <trkpt lat="45.02127" lon="4.0957">
        <ele>981</ele>
        <time>2026-08-13T11:25:28Z</time>
      </trkpt>
      <trkpt lat="45.02157" lon="4.09509">
        <ele>976</ele>
        <time>2026-08-13T11:26:38Z</time>
      </trkpt>
      <trkpt lat="45.02165" lon="4.09499">
        <ele>976</ele>
        <time>2026-08-13T11:26:53Z</time>
      </trkpt>
      <trkpt lat="45.02168" lon="4.09503">
        <ele>976</ele>
        <time>2026-08-13T11:26:58Z</time>
      </trkpt>
      <trkpt lat="45.02163" lon="4.09496">
        <ele>975</ele>
        <time>2026-08-13T11:27:07Z</time>
      </trkpt>
      <trkpt lat="45.0218" lon="4.0945">
        <ele>972</ele>
        <time>2026-08-13T11:27:56Z</time>
      </trkpt>
      <trkpt lat="45.02222" lon="4.09361">
        <ele>966</ele>
        <time>2026-08-13T11:29:37Z</time>
      </trkpt>
      <trkpt lat="45.02227" lon="4.09332">
        <ele>964</ele>
        <time>2026-08-13T11:30:05Z</time>
      </trkpt>
      <trkpt lat="45.02228" lon="4.09277">
        <ele>959</ele>
        <time>2026-08-13T11:30:57Z</time>
      </trkpt>
      <trkpt lat="45.02235" lon="4.09273">
        <ele>959</ele>
        <time>2026-08-13T11:31:07Z</time>
      </trkpt>
      <trkpt lat="45.02271" lon="4.0928">
        <ele>962</ele>
        <time>2026-08-13T11:31:56Z</time>
      </trkpt>
      <trkpt lat="45.02286" lon="4.09295">
        <ele>964</ele>
        <time>2026-08-13T11:32:20Z</time>
      </trkpt>
      <trkpt lat="45.02316" lon="4.09408">
        <ele>974</ele>
        <time>2026-08-13T11:34:14Z</time>
      </trkpt>
      <trkpt lat="45.02343" lon="4.09456">
        <ele>979</ele>
        <time>2026-08-13T11:35:12Z</time>
      </trkpt>
      <trkpt lat="45.02349" lon="4.0946">
        <ele>980</ele>
        <time>2026-08-13T11:35:21Z</time>
      </trkpt>
      <trkpt lat="45.02358" lon="4.09459">
        <ele>981</ele>
        <time>2026-08-13T11:35:33Z</time>
      </trkpt>
      <trkpt lat="45.02375" lon="4.09441">
        <ele>982</ele>
        <time>2026-08-13T11:36:01Z</time>
      </trkpt>
      <trkpt lat="45.02396" lon="4.09432">
        <ele>984</ele>
        <time>2026-08-13T11:36:31Z</time>
      </trkpt>
      <trkpt lat="45.02415" lon="4.0943">
        <ele>986</ele>
        <time>2026-08-13T11:36:56Z</time>
      </trkpt>
      <trkpt lat="45.02426" lon="4.09415">
        <ele>985</ele>
        <time>2026-08-13T11:37:16Z</time>
      </trkpt>
      <trkpt lat="45.02431" lon="4.09418">
        <ele>986</ele>
        <time>2026-08-13T11:37:24Z</time>
      </trkpt>
      <trkpt lat="45.02431" lon="4.09452">
        <ele>988</ele>
        <time>2026-08-13T11:37:56Z</time>
      </trkpt>
      <trkpt lat="45.02444" lon="4.09521">
        <ele>994</ele>
        <time>2026-08-13T11:39:03Z</time>
      </trkpt>
      <trkpt lat="45.02483" lon="4.09623">
        <ele>1005</ele>
        <time>2026-08-13T11:40:53Z</time>
      </trkpt>
      <trkpt lat="45.0249" lon="4.09659">
        <ele>1008</ele>
        <time>2026-08-13T11:41:28Z</time>
      </trkpt>
      <trkpt lat="45.02503" lon="4.09691">
        <ele>1013</ele>
        <time>2026-08-13T11:42:03Z</time>
      </trkpt>
      <trkpt lat="45.0251" lon="4.09699">
        <ele>1014</ele>
        <time>2026-08-13T11:42:15Z</time>
      </trkpt>
      <trkpt lat="45.02506" lon="4.09702">
        <ele>1015</ele>
        <time>2026-08-13T11:42:21Z</time>
      </trkpt>
      <trkpt lat="45.02471" lon="4.097">
        <ele>1013</ele>
        <time>2026-08-13T11:43:07Z</time>
      </trkpt>
      <trkpt lat="45.02454" lon="4.09711">
        <ele>1013</ele>
        <time>2026-08-13T11:43:32Z</time>
      </trkpt>
      <trkpt lat="45.02442" lon="4.09734">
        <ele>1016</ele>
        <time>2026-08-13T11:43:59Z</time>
      </trkpt>
      <trkpt lat="45.02432" lon="4.0978">
        <ele>1021</ele>
        <time>2026-08-13T11:44:45Z</time>
      </trkpt>
      <trkpt lat="45.02434" lon="4.09799">
        <ele>1024</ele>
        <time>2026-08-13T11:45:03Z</time>
      </trkpt>
      <trkpt lat="45.02444" lon="4.09807">
        <ele>1026</ele>
        <time>2026-08-13T11:45:18Z</time>
      </trkpt>
      <trkpt lat="45.02457" lon="4.09804">
        <ele>1027</ele>
        <time>2026-08-13T11:45:36Z</time>
      </trkpt>
      <trkpt lat="45.02475" lon="4.09782">
        <ele>1025</ele>
        <time>2026-08-13T11:46:07Z</time>
      </trkpt>
      <trkpt lat="45.02485" lon="4.09778">
        <ele>1025</ele>
        <time>2026-08-13T11:46:21Z</time>
      </trkpt>
      <trkpt lat="45.02498" lon="4.09782">
        <ele>1027</ele>
        <time>2026-08-13T11:46:39Z</time>
      </trkpt>
      <trkpt lat="45.02511" lon="4.09799">
        <ele>1029</ele>
        <time>2026-08-13T11:47:03Z</time>
      </trkpt>
      <trkpt lat="45.02532" lon="4.09878">
        <ele>1034</ele>
        <time>2026-08-13T11:48:22Z</time>
      </trkpt>
      <trkpt lat="45.02569" lon="4.0996">
        <ele>1037</ele>
        <time>2026-08-13T11:49:54Z</time>
      </trkpt>
      <trkpt lat="45.02571" lon="4.10082">
        <ele>1046</ele>
        <time>2026-08-13T11:51:49Z</time>
      </trkpt>
      <trkpt lat="45.02591" lon="4.10157">
        <ele>1052</ele>
        <time>2026-08-13T11:53:05Z</time>
      </trkpt>
      <trkpt lat="45.02612" lon="4.1019">
        <ele>1056</ele>
        <time>2026-08-13T11:53:47Z</time>
      </trkpt>
      <trkpt lat="45.02648" lon="4.10221">
        <ele>1059</ele>
        <time>2026-08-13T11:54:43Z</time>
      </trkpt>
      <trkpt lat="45.02661" lon="4.10248">
        <ele>1061</ele>
        <time>2026-08-13T11:55:14Z</time>
      </trkpt>
      <trkpt lat="45.02672" lon="4.10259">
        <ele>1061</ele>
        <time>2026-08-13T11:55:32Z</time>
      </trkpt>
      <trkpt lat="45.02666" lon="4.10283">
        <ele>1061</ele>
        <time>2026-08-13T11:55:56Z</time>
      </trkpt>
      <trkpt lat="45.02683" lon="4.10316">
        <ele>1061</ele>
        <time>2026-08-13T11:56:34Z</time>
      </trkpt>
      <trkpt lat="45.02684" lon="4.10355">
        <ele>1062</ele>
        <time>2026-08-13T11:57:11Z</time>
      </trkpt>
      <trkpt lat="45.02693" lon="4.10381">
        <ele>1063</ele>
        <time>2026-08-13T11:57:38Z</time>
      </trkpt>
      <trkpt lat="45.02751" lon="4.10476">
        <ele>1071</ele>
        <time>2026-08-13T11:59:37Z</time>
      </trkpt>
      <trkpt lat="45.02767" lon="4.10513">
        <ele>1072</ele>
        <time>2026-08-13T12:00:18Z</time>
      </trkpt>
      <trkpt lat="45.02818" lon="4.10574">
        <ele>1074</ele>
        <time>2026-08-13T12:01:47Z</time>
      </trkpt>
      <trkpt lat="45.02823" lon="4.1059">
        <ele>1075</ele>
        <time>2026-08-13T12:02:03Z</time>
      </trkpt>
      <trkpt lat="45.02819" lon="4.10627">
        <ele>1079</ele>
        <time>2026-08-13T12:02:39Z</time>
      </trkpt>
      <trkpt lat="45.02829" lon="4.10653">
        <ele>1082</ele>
        <time>2026-08-13T12:03:06Z</time>
      </trkpt>
      <trkpt lat="45.02834" lon="4.10657">
        <ele>1082</ele>
        <time>2026-08-13T12:03:14Z</time>
      </trkpt>
      <trkpt lat="45.02881" lon="4.10626">
        <ele>1077</ele>
        <time>2026-08-13T12:04:23Z</time>
      </trkpt>
      <trkpt lat="45.02904" lon="4.10601">
        <ele>1073</ele>
        <time>2026-08-13T12:05:02Z</time>
      </trkpt>
      <trkpt lat="45.02903" lon="4.1053">
        <ele>1067</ele>
        <time>2026-08-13T12:06:09Z</time>
      </trkpt>
      <trkpt lat="45.02927" lon="4.10425">
        <ele>1059</ele>
        <time>2026-08-13T12:07:53Z</time>
      </trkpt>
      <trkpt lat="45.02928" lon="4.10388">
        <ele>1056</ele>
        <time>2026-08-13T12:08:28Z</time>
      </trkpt>
      <trkpt lat="45.02924" lon="4.10356">
        <ele>1054</ele>
        <time>2026-08-13T12:08:59Z</time>
      </trkpt>
      <trkpt lat="45.02968" lon="4.10266">
        <ele>1048</ele>
        <time>2026-08-13T12:10:42Z</time>
      </trkpt>
      <trkpt lat="45.02979" lon="4.10203">
        <ele>1041</ele>
        <time>2026-08-13T12:11:43Z</time>
      </trkpt>
      <trkpt lat="45.03014" lon="4.10152">
        <ele>1036</ele>
        <time>2026-08-13T12:12:50Z</time>
      </trkpt>
      <trkpt lat="45.03015" lon="4.10136">
        <ele>1027.2</ele>
      </trkpt>
      <trkpt lat="45.03036" lon="4.10098">
        <ele>1024</ele>
      </trkpt>
      <trkpt lat="45.0303" lon="4.10082">
        <ele>1022.1</ele>
      </trkpt>
      <trkpt lat="45.03026" lon="4.10064">
        <ele>1020.4</ele>
      </trkpt>
      <trkpt lat="45.03022" lon="4.10037">
        <ele>1017.8</ele>
      </trkpt>
      <trkpt lat="45.03022" lon="4.10026">
        <ele>1016.8</ele>
      </trkpt>
      <trkpt lat="45.03022" lon="4.10025">
        <ele>1016.7</ele>
      </trkpt>
      <trkpt lat="45.03023" lon="4.10017">
        <ele>1015.8</ele>
      </trkpt>
      <trkpt lat="45.03032" lon="4.09998">
        <ele>1013.7</ele>
      </trkpt>
      <trkpt lat="45.03029" lon="4.09994">
        <ele>1013.6</ele>
      </trkpt>
      <trkpt lat="45.03036" lon="4.09981">
        <ele>1015</ele>
        <time>2026-08-13T12:27:55Z</time>
      </trkpt>
      <trkpt lat="45.0306" lon="4.09971">
        <ele>1014</ele>
        <time>2026-08-13T12:28:29Z</time>
      </trkpt>
      <trkpt lat="45.03084" lon="4.09947">
        <ele>1010</ele>
        <time>2026-08-13T12:29:08Z</time>
      </trkpt>
      <trkpt lat="45.03131" lon="4.09839">
        <ele>999</ele>
        <time>2026-08-13T12:31:08Z</time>
      </trkpt>
      <trkpt lat="45.03139" lon="4.09771">
        <ele>994</ele>
        <time>2026-08-13T12:32:13Z</time>
      </trkpt>
      <trkpt lat="45.03137" lon="4.09755">
        <ele>993</ele>
        <time>2026-08-13T12:32:28Z</time>
      </trkpt>
      <trkpt lat="45.03129" lon="4.09755">
        <ele>993</ele>
        <time>2026-08-13T12:32:39Z</time>
      </trkpt>
      <trkpt lat="45.03133" lon="4.09748">
        <ele>992</ele>
        <time>2026-08-13T12:32:47Z</time>
      </trkpt>
      <trkpt lat="45.03134" lon="4.09688">
        <ele>990</ele>
        <time>2026-08-13T12:33:44Z</time>
      </trkpt>
      <trkpt lat="45.03149" lon="4.09635">
        <ele>987</ele>
        <time>2026-08-13T12:34:38Z</time>
      </trkpt>
      <trkpt lat="45.03198" lon="4.09506">
        <ele>981</ele>
        <time>2026-08-13T12:36:56Z</time>
      </trkpt>
      <trkpt lat="45.03197" lon="4.09481">
        <ele>979</ele>
        <time>2026-08-13T12:37:19Z</time>
      </trkpt>
      <trkpt lat="45.03184" lon="4.09448">
        <ele>976</ele>
        <time>2026-08-13T12:37:55Z</time>
      </trkpt>
      <trkpt lat="45.03176" lon="4.09444">
        <ele>975</ele>
        <time>2026-08-13T12:38:06Z</time>
      </trkpt>
      <trkpt lat="45.03175" lon="4.09438">
        <ele>975</ele>
        <time>2026-08-13T12:38:12Z</time>
      </trkpt>
      <trkpt lat="45.0318" lon="4.09433">
        <ele>975</ele>
        <time>2026-08-13T12:38:20Z</time>
      </trkpt>
      <trkpt lat="45.03182" lon="4.09435">
        <ele>975</ele>
        <time>2026-08-13T12:38:23Z</time>
      </trkpt>
      <trkpt lat="45.03208" lon="4.09391">
        <ele>974</ele>
        <time>2026-08-13T12:39:18Z</time>
      </trkpt>
      <trkpt lat="45.03209" lon="4.09354">
        <ele>972</ele>
        <time>2026-08-13T12:39:52Z</time>
      </trkpt>
      <trkpt lat="45.03222" lon="4.09291">
        <ele>968</ele>
        <time>2026-08-13T12:40:54Z</time>
      </trkpt>
      <trkpt lat="45.03241" lon="4.09247">
        <ele>967</ele>
        <time>2026-08-13T12:41:43Z</time>
      </trkpt>
      <trkpt lat="45.03237" lon="4.09247">
        <ele>967</ele>
        <time>2026-08-13T12:41:48Z</time>
      </trkpt>
      <trkpt lat="45.03231" lon="4.09258">
        <ele>967</ele>
        <time>2026-08-13T12:42:01Z</time>
      </trkpt>
      <trkpt lat="45.03227" lon="4.09253">
        <ele>966</ele>
        <time>2026-08-13T12:42:09Z</time>
      </trkpt>
      <trkpt lat="45.03227" lon="4.09242">
        <ele>965</ele>
        <time>2026-08-13T12:42:19Z</time>
      </trkpt>
      <trkpt lat="45.0323" lon="4.09259">
        <ele>967</ele>
        <time>2026-08-13T12:42:35Z</time>
      </trkpt>
      <trkpt lat="45.03234" lon="4.09262">
        <ele>967</ele>
        <time>2026-08-13T12:42:42Z</time>
      </trkpt>
      <trkpt lat="45.03291" lon="4.09237">
        <ele>972</ele>
        <time>2026-08-13T12:44:01Z</time>
      </trkpt>
      <trkpt lat="45.0331" lon="4.09224">
        <ele>974</ele>
        <time>2026-08-13T12:44:29Z</time>
      </trkpt>
      <trkpt lat="45.03345" lon="4.09175">
        <ele>977</ele>
        <time>2026-08-13T12:45:35Z</time>
      </trkpt>
      <trkpt lat="45.03392" lon="4.09128">
        <ele>979</ele>
        <time>2026-08-13T12:46:52Z</time>
      </trkpt>
      <trkpt lat="45.03411" lon="4.09117">
        <ele>980</ele>
        <time>2026-08-13T12:47:19Z</time>
      </trkpt>
      <trkpt lat="45.03413" lon="4.09112">
        <ele>980</ele>
        <time>2026-08-13T12:47:25Z</time>
      </trkpt>
      <trkpt lat="45.03418" lon="4.09113">
        <ele>981</ele>
        <time>2026-08-13T12:47:31Z</time>
      </trkpt>
      <trkpt lat="45.03455" lon="4.09089">
        <ele>981</ele>
        <time>2026-08-13T12:48:26Z</time>
      </trkpt>
      <trkpt lat="45.03474" lon="4.09083">
        <ele>980</ele>
        <time>2026-08-13T12:48:52Z</time>
      </trkpt>
      <trkpt lat="45.03512" lon="4.09087">
        <ele>983</ele>
        <time>2026-08-13T12:49:43Z</time>
      </trkpt>
      <trkpt lat="45.03518" lon="4.09083">
        <ele>982</ele>
        <time>2026-08-13T12:49:51Z</time>
      </trkpt>
      <trkpt lat="45.03577" lon="4.09109">
        <ele>993</ele>
        <time>2026-08-13T12:51:14Z</time>
      </trkpt>
      <trkpt lat="45.0363" lon="4.09096">
        <ele>990</ele>
        <time>2026-08-13T12:52:26Z</time>
      </trkpt>
      <trkpt lat="45.03653" lon="4.09106">
        <ele>991</ele>
        <time>2026-08-13T12:52:58Z</time>
      </trkpt>
      <trkpt lat="45.03695" lon="4.09146">
        <ele>995</ele>
        <time>2026-08-13T12:54:05Z</time>
      </trkpt>
      <trkpt lat="45.03709" lon="4.09151">
        <ele>993</ele>
        <time>2026-08-13T12:54:25Z</time>
      </trkpt>
      <trkpt lat="45.03731" lon="4.0915">
        <ele>990</ele>
        <time>2026-08-13T12:54:54Z</time>
      </trkpt>
      <trkpt lat="45.03756" lon="4.09072">
        <ele>984</ele>
        <time>2026-08-13T12:56:15Z</time>
      </trkpt>
      <trkpt lat="45.03762" lon="4.09003">
        <ele>981</ele>
        <time>2026-08-13T12:57:20Z</time>
      </trkpt>
      <trkpt lat="45.03761" lon="4.08966">
        <ele>978</ele>
        <time>2026-08-13T12:57:55Z</time>
      </trkpt>
      <trkpt lat="45.03769" lon="4.08935">
        <ele>974</ele>
        <time>2026-08-13T12:58:26Z</time>
      </trkpt>
      <trkpt lat="45.03776" lon="4.08925">
        <ele>972</ele>
        <time>2026-08-13T12:58:40Z</time>
      </trkpt>
      <trkpt lat="45.0379" lon="4.08916">
        <ele>970</ele>
        <time>2026-08-13T12:59:00Z</time>
      </trkpt>
      <trkpt lat="45.03788" lon="4.08887">
        <ele>967</ele>
        <time>2026-08-13T12:59:28Z</time>
      </trkpt>
      <trkpt lat="45.03818" lon="4.08851">
        <ele>960</ele>
        <time>2026-08-13T13:00:20Z</time>
      </trkpt>
      <trkpt lat="45.03824" lon="4.0885">
        <ele>959</ele>
        <time>2026-08-13T13:00:28Z</time>
      </trkpt>
      <trkpt lat="45.03825" lon="4.08856">
        <ele>960</ele>
        <time>2026-08-13T13:00:34Z</time>
      </trkpt>
      <trkpt lat="45.03825" lon="4.08853">
        <ele>959</ele>
        <time>2026-08-13T13:00:37Z</time>
      </trkpt>
      <trkpt lat="45.03819" lon="4.0886">
        <ele>961</ele>
        <time>2026-08-13T13:00:47Z</time>
      </trkpt>
      <trkpt lat="45.03819" lon="4.08843">
        <ele>959</ele>
        <time>2026-08-13T13:01:03Z</time>
      </trkpt>
      <trkpt lat="45.03823" lon="4.08853">
        <ele>960</ele>
        <time>2026-08-13T13:01:14Z</time>
      </trkpt>
      <trkpt lat="45.03821" lon="4.08848">
        <ele>959</ele>
        <time>2026-08-13T13:01:19Z</time>
      </trkpt>
      <trkpt lat="45.03824" lon="4.08852">
        <ele>959</ele>
        <time>2026-08-13T13:01:25Z</time>
      </trkpt>
      <trkpt lat="45.03825" lon="4.08847">
        <ele>959</ele>
        <time>2026-08-13T13:01:30Z</time>
      </trkpt>
      <trkpt lat="45.03827" lon="4.08853">
        <ele>959</ele>
        <time>2026-08-13T13:01:36Z</time>
      </trkpt>
      <trkpt lat="45.03822" lon="4.08856">
        <ele>960</ele>
        <time>2026-08-13T13:01:43Z</time>
      </trkpt>
      <trkpt lat="45.03825" lon="4.08855">
        <ele>960</ele>
        <time>2026-08-13T13:01:47Z</time>
      </trkpt>
      <trkpt lat="45.03822" lon="4.08847">
        <ele>959</ele>
        <time>2026-08-13T13:01:56Z</time>
      </trkpt>
      <trkpt lat="45.03826" lon="4.08854">
        <ele>959</ele>
        <time>2026-08-13T13:02:04Z</time>
      </trkpt>
      <trkpt lat="45.03823" lon="4.08855">
        <ele>960</ele>
        <time>2026-08-13T13:02:09Z</time>
      </trkpt>
      <trkpt lat="45.03826" lon="4.08854">
        <ele>959</ele>
        <time>2026-08-13T13:02:13Z</time>
      </trkpt>
      <trkpt lat="45.03824" lon="4.08837">
        <ele>958</ele>
        <time>2026-08-13T13:02:29Z</time>
      </trkpt>
      <trkpt lat="45.03847" lon="4.08812">
        <ele>955</ele>
        <time>2026-08-13T13:03:08Z</time>
      </trkpt>
      <trkpt lat="45.03868" lon="4.08736">
        <ele>950</ele>
        <time>2026-08-13T13:04:25Z</time>
      </trkpt>
      <trkpt lat="45.03886" lon="4.08734">
        <ele>948</ele>
        <time>2026-08-13T13:04:49Z</time>
      </trkpt>
      <trkpt lat="45.03909" lon="4.08744">
        <ele>946</ele>
        <time>2026-08-13T13:05:21Z</time>
      </trkpt>
      <trkpt lat="45.03918" lon="4.08751">
        <ele>946</ele>
        <time>2026-08-13T13:05:34Z</time>
      </trkpt>
      <trkpt lat="45.0393" lon="4.0877">
        <ele>946</ele>
        <time>2026-08-13T13:05:59Z</time>
      </trkpt>
      <trkpt lat="45.03928" lon="4.08776">
        <ele>946</ele>
        <time>2026-08-13T13:06:05Z</time>
      </trkpt>
      <trkpt lat="45.03933" lon="4.08775">
        <ele>946</ele>
        <time>2026-08-13T13:06:12Z</time>
      </trkpt>
      <trkpt lat="45.0396" lon="4.08792">
        <ele>944</ele>
        <time>2026-08-13T13:06:51Z</time>
      </trkpt>
      <trkpt lat="45.03959" lon="4.08799">
        <ele>945</ele>
        <time>2026-08-13T13:06:58Z</time>
      </trkpt>
      <trkpt lat="45.03991" lon="4.08809">
        <ele>943</ele>
        <time>2026-08-13T13:07:41Z</time>
      </trkpt>
      <trkpt lat="45.04023" lon="4.08801">
        <ele>943</ele>
        <time>2026-08-13T13:08:25Z</time>
      </trkpt>
      <trkpt lat="45.04047" lon="4.08806">
        <ele>944</ele>
        <time>2026-08-13T13:08:57Z</time>
      </trkpt>
      <trkpt lat="45.04054" lon="4.08804">
        <ele>944</ele>
        <time>2026-08-13T13:09:07Z</time>
      </trkpt>
      <trkpt lat="45.04078" lon="4.08786">
        <ele>943</ele>
        <time>2026-08-13T13:09:43Z</time>
      </trkpt>
      <trkpt lat="45.04101" lon="4.08758">
        <ele>942</ele>
        <time>2026-08-13T13:10:23Z</time>
      </trkpt>
      <trkpt lat="45.04121" lon="4.08707">
        <ele>937</ele>
        <time>2026-08-13T13:11:18Z</time>
      </trkpt>
      <trkpt lat="45.04146" lon="4.08675">
        <ele>933</ele>
        <time>2026-08-13T13:12:03Z</time>
      </trkpt>
      <trkpt lat="45.04175" lon="4.08666">
        <ele>932</ele>
        <time>2026-08-13T13:12:43Z</time>
      </trkpt>
      <trkpt lat="45.04217" lon="4.08634">
        <ele>931</ele>
        <time>2026-08-13T13:13:47Z</time>
      </trkpt>
      <trkpt lat="45.04248" lon="4.0864">
        <ele>933</ele>
        <time>2026-08-13T13:14:28Z</time>
      </trkpt>
      <trkpt lat="45.04285" lon="4.08622">
        <ele>935</ele>
        <time>2026-08-13T13:15:21Z</time>
      </trkpt>
      <trkpt lat="45.04308" lon="4.08636">
        <ele>939</ele>
        <time>2026-08-13T13:15:54Z</time>
      </trkpt>
      <trkpt lat="45.04314" lon="4.08635">
        <ele>939</ele>
        <time>2026-08-13T13:16:02Z</time>
      </trkpt>
      <trkpt lat="45.04331" lon="4.08624">
        <ele>941</ele>
        <time>2026-08-13T13:16:27Z</time>
      </trkpt>
      <trkpt lat="45.04354" lon="4.08591">
        <ele>942</ele>
        <time>2026-08-13T13:17:11Z</time>
      </trkpt>
      <trkpt lat="45.04408" lon="4.08571">
        <ele>947</ele>
        <time>2026-08-13T13:18:25Z</time>
      </trkpt>
      <trkpt lat="45.04468" lon="4.08533">
        <ele>948</ele>
        <time>2026-08-13T13:19:53Z</time>
      </trkpt>
      <trkpt lat="45.04498" lon="4.08508">
        <ele>948</ele>
        <time>2026-08-13T13:20:39Z</time>
      </trkpt>
      <trkpt lat="45.04481" lon="4.08398">
        <ele>938</ele>
        <time>2026-08-13T13:22:26Z</time>
      </trkpt>
      <trkpt lat="45.04471" lon="4.0835">
        <ele>932</ele>
        <time>2026-08-13T13:23:13Z</time>
      </trkpt>
      <trkpt lat="45.04452" lon="4.08297">
        <ele>927</ele>
        <time>2026-08-13T13:24:09Z</time>
      </trkpt>
      <trkpt lat="45.04444" lon="4.08247">
        <ele>924</ele>
        <time>2026-08-13T13:24:57Z</time>
      </trkpt>
      <trkpt lat="45.04409" lon="4.08209">
        <ele>919</ele>
        <time>2026-08-13T13:25:56Z</time>
      </trkpt>
      <trkpt lat="45.04401" lon="4.08189">
        <ele>915</ele>
        <time>2026-08-13T13:26:18Z</time>
      </trkpt>
      <trkpt lat="45.04391" lon="4.08179">
        <ele>912</ele>
        <time>2026-08-13T13:26:34Z</time>
      </trkpt>
      <trkpt lat="45.04379" lon="4.08138">
        <ele>904</ele>
        <time>2026-08-13T13:27:16Z</time>
      </trkpt>
      <trkpt lat="45.04352" lon="4.08105">
        <ele>894</ele>
        <time>2026-08-13T13:28:03Z</time>
      </trkpt>
      <trkpt lat="45.04357" lon="4.08081">
        <ele>892</ele>
        <time>2026-08-13T13:28:27Z</time>
      </trkpt>
      <trkpt lat="45.04374" lon="4.0805">
        <ele>889</ele>
        <time>2026-08-13T13:29:04Z</time>
      </trkpt>
      <trkpt lat="45.04394" lon="4.08026">
        <ele>886</ele>
        <time>2026-08-13T13:29:39Z</time>
      </trkpt>
      <trkpt lat="45.04388" lon="4.08023">
        <ele>885</ele>
        <time>2026-08-13T13:29:48Z</time>
      </trkpt>
      <trkpt lat="45.04373" lon="4.08038">
        <ele>887</ele>
        <time>2026-08-13T13:30:12Z</time>
      </trkpt>
      <trkpt lat="45.04368" lon="4.08036">
        <ele>886</ele>
        <time>2026-08-13T13:30:19Z</time>
      </trkpt>
      <trkpt lat="45.0437" lon="4.08005">
        <ele>882</ele>
        <time>2026-08-13T13:30:48Z</time>
      </trkpt>
      <trkpt lat="45.04383" lon="4.07964">
        <ele>880</ele>
        <time>2026-08-13T13:31:31Z</time>
      </trkpt>
      <trkpt lat="45.04369" lon="4.07898">
        <ele>876</ele>
        <time>2026-08-13T13:32:36Z</time>
      </trkpt>
      <trkpt lat="45.04344" lon="4.07828">
        <ele>868</ele>
        <time>2026-08-13T13:33:50Z</time>
      </trkpt>
      <trkpt lat="45.04378" lon="4.07806">
        <ele>869</ele>
        <time>2026-08-13T13:34:40Z</time>
      </trkpt>
      <trkpt lat="45.04387" lon="4.07795">
        <ele>869</ele>
        <time>2026-08-13T13:34:55Z</time>
      </trkpt>
      <trkpt lat="45.04397" lon="4.07772">
        <ele>868</ele>
        <time>2026-08-13T13:35:21Z</time>
      </trkpt>
      <trkpt lat="45.04405" lon="4.07733">
        <ele>867</ele>
        <time>2026-08-13T13:35:59Z</time>
      </trkpt>
      <trkpt lat="45.04413" lon="4.07714">
        <ele>866</ele>
        <time>2026-08-13T13:36:20Z</time>
      </trkpt>
      <trkpt lat="45.04428" lon="4.07695">
        <ele>869</ele>
        <time>2026-08-13T13:36:47Z</time>
      </trkpt>
      <trkpt lat="45.04433" lon="4.07669">
        <ele>869</ele>
        <time>2026-08-13T13:37:12Z</time>
      </trkpt>
      <trkpt lat="45.04444" lon="4.07654">
        <ele>872</ele>
        <time>2026-08-13T13:37:33Z</time>
      </trkpt>
      <trkpt lat="45.04452" lon="4.07632">
        <ele>875</ele>
        <time>2026-08-13T13:37:56Z</time>
      </trkpt>
      <trkpt lat="45.04458" lon="4.07581">
        <ele>876</ele>
        <time>2026-08-13T13:38:45Z</time>
      </trkpt>
      <trkpt lat="45.04469" lon="4.07562">
        <ele>880</ele>
        <time>2026-08-13T13:39:08Z</time>
      </trkpt>
      <trkpt lat="45.04493" lon="4.07534">
        <ele>886</ele>
        <time>2026-08-13T13:39:49Z</time>
      </trkpt>
      <trkpt lat="45.04499" lon="4.07506">
        <ele>887</ele>
        <time>2026-08-13T13:40:17Z</time>
      </trkpt>
      <trkpt lat="45.04514" lon="4.07475">
        <ele>888</ele>
        <time>2026-08-13T13:40:52Z</time>
      </trkpt>
      <trkpt lat="45.04516" lon="4.07458">
        <ele>888</ele>
        <time>2026-08-13T13:41:09Z</time>
      </trkpt>
      <trkpt lat="45.04508" lon="4.07394">
        <ele>885</ele>
        <time>2026-08-13T13:42:10Z</time>
      </trkpt>
      <trkpt lat="45.04488" lon="4.07319">
        <ele>879</ele>
        <time>2026-08-13T13:43:26Z</time>
      </trkpt>
      <trkpt lat="45.04497" lon="4.07297">
        <ele>879</ele>
        <time>2026-08-13T13:43:50Z</time>
      </trkpt>
      <trkpt lat="45.04526" lon="4.07258">
        <ele>877</ele>
        <time>2026-08-13T13:44:43Z</time>
      </trkpt>
      <trkpt lat="45.04535" lon="4.07239">
        <ele>876</ele>
        <time>2026-08-13T13:45:04Z</time>
      </trkpt>
      <trkpt lat="45.04533" lon="4.0721">
        <ele>873</ele>
        <time>2026-08-13T13:45:32Z</time>
      </trkpt>
      <trkpt lat="45.04522" lon="4.07197">
        <ele>870</ele>
        <time>2026-08-13T13:45:51Z</time>
      </trkpt>
      <trkpt lat="45.04451" lon="4.07162">
        <ele>862</ele>
        <time>2026-08-13T13:47:31Z</time>
      </trkpt>
      <trkpt lat="45.04426" lon="4.07155">
        <ele>861</ele>
        <time>2026-08-13T13:48:05Z</time>
      </trkpt>
      <trkpt lat="45.04422" lon="4.07157">
        <ele>861</ele>
        <time>2026-08-13T13:48:11Z</time>
      </trkpt>
      <trkpt lat="45.04455" lon="4.07124">
        <ele>861</ele>
        <time>2026-08-13T13:49:05Z</time>
      </trkpt>
      <trkpt lat="45.04479" lon="4.07093">
        <ele>860</ele>
        <time>2026-08-13T13:49:48Z</time>
      </trkpt>
      <trkpt lat="45.04513" lon="4.07069">
        <ele>861</ele>
        <time>2026-08-13T13:50:39Z</time>
      </trkpt>
      <trkpt lat="45.04609" lon="4.07023">
        <ele>866</ele>
        <time>2026-08-13T13:52:54Z</time>
      </trkpt>
      <trkpt lat="45.04686" lon="4.07006">
        <ele>870</ele>
        <time>2026-08-13T13:54:38Z</time>
      </trkpt>
      <trkpt lat="45.04757" lon="4.06952">
        <ele>873</ele>
        <time>2026-08-13T13:56:26Z</time>
      </trkpt>
      <trkpt lat="45.04806" lon="4.0687">
        <ele>870</ele>
        <time>2026-08-13T13:58:07Z</time>
      </trkpt>
      <trkpt lat="45.04896" lon="4.06769">
        <ele>874</ele>
        <time>2026-08-13T14:00:40Z</time>
      </trkpt>
      <trkpt lat="45.04934" lon="4.06694">
        <ele>877</ele>
        <time>2026-08-13T14:02:07Z</time>
      </trkpt>
      <trkpt lat="45.04969" lon="4.06668">
        <ele>878</ele>
        <time>2026-08-13T14:03:00Z</time>
      </trkpt>
      <trkpt lat="45.04979" lon="4.06627">
        <ele>878</ele>
        <time>2026-08-13T14:03:41Z</time>
      </trkpt>
      <trkpt lat="45.05087" lon="4.06559">
        <ele>884</ele>
        <time>2026-08-13T14:06:19Z</time>
      </trkpt>
      <trkpt lat="45.05112" lon="4.06531">
        <ele>885</ele>
        <time>2026-08-13T14:07:01Z</time>
      </trkpt>
      <trkpt lat="45.05136" lon="4.06488">
        <ele>884</ele>
        <time>2026-08-13T14:07:53Z</time>
      </trkpt>
      <trkpt lat="45.05137" lon="4.06475">
        <ele>884</ele>
        <time>2026-08-13T14:08:05Z</time>
      </trkpt>
      <trkpt lat="45.05116" lon="4.06458">
        <ele>883</ele>
        <time>2026-08-13T14:08:38Z</time>
      </trkpt>
      <trkpt lat="45.0509" lon="4.06459">
        <ele>881</ele>
        <time>2026-08-13T14:09:12Z</time>
      </trkpt>
      <trkpt lat="45.05084" lon="4.06456">
        <ele>881</ele>
        <time>2026-08-13T14:09:21Z</time>
      </trkpt>
      <trkpt lat="45.05082" lon="4.06449">
        <ele>881</ele>
        <time>2026-08-13T14:09:28Z</time>
      </trkpt>
      <trkpt lat="45.05104" lon="4.06327">
        <ele>891</ele>
        <time>2026-08-13T14:11:27Z</time>
      </trkpt>
      <trkpt lat="45.05097" lon="4.06316">
        <ele>890</ele>
        <time>2026-08-13T14:11:41Z</time>
      </trkpt>
      <trkpt lat="45.05069" lon="4.06212">
        <ele>886</ele>
        <time>2026-08-13T14:13:25Z</time>
      </trkpt>
      <trkpt lat="45.05061" lon="4.06138">
        <ele>881</ele>
        <time>2026-08-13T14:14:36Z</time>
      </trkpt>
      <trkpt lat="45.05043" lon="4.06078">
        <ele>872</ele>
        <time>2026-08-13T14:15:38Z</time>
      </trkpt>
      <trkpt lat="45.05036" lon="4.06039">
        <ele>869</ele>
        <time>2026-08-13T14:16:15Z</time>
      </trkpt>
      <trkpt lat="45.05034" lon="4.06023">
        <ele>869</ele>
        <time>2026-08-13T14:16:31Z</time>
      </trkpt>
      <trkpt lat="45.05041" lon="4.06015">
        <ele>870</ele>
        <time>2026-08-13T14:16:43Z</time>
      </trkpt>
      <trkpt lat="45.05035" lon="4.06014">
        <ele>869</ele>
        <time>2026-08-13T14:16:51Z</time>
      </trkpt>
      <trkpt lat="45.05023" lon="4.05991">
        <ele>867</ele>
        <time>2026-08-13T14:17:18Z</time>
      </trkpt>
      <trkpt lat="45.05011" lon="4.05979">
        <ele>866</ele>
        <time>2026-08-13T14:17:37Z</time>
      </trkpt>
      <trkpt lat="45.04961" lon="4.05959">
        <ele>861</ele>
        <time>2026-08-13T14:18:47Z</time>
      </trkpt>
      <trkpt lat="45.04932" lon="4.0594">
        <ele>858</ele>
        <time>2026-08-13T14:19:29Z</time>
      </trkpt>
      <trkpt lat="45.04924" lon="4.05913">
        <ele>858</ele>
        <time>2026-08-13T14:19:57Z</time>
      </trkpt>
      <trkpt lat="45.04922" lon="4.0586">
        <ele>857</ele>
        <time>2026-08-13T14:20:47Z</time>
      </trkpt>
      <trkpt lat="45.04919" lon="4.05868">
        <ele>857</ele>
        <time>2026-08-13T14:20:56Z</time>
      </trkpt>
      <trkpt lat="45.04926" lon="4.05933">
        <ele>858</ele>
        <time>2026-08-13T14:21:58Z</time>
      </trkpt>
      <trkpt lat="45.04922" lon="4.05942">
        <ele>857</ele>
        <time>2026-08-13T14:22:08Z</time>
      </trkpt>
      <trkpt lat="45.04903" lon="4.05951">
        <ele>855</ele>
        <time>2026-08-13T14:22:34Z</time>
      </trkpt>
      <trkpt lat="45.04894" lon="4.0595">
        <ele>854</ele>
        <time>2026-08-13T14:22:46Z</time>
      </trkpt>
      <trkpt lat="45.04887" lon="4.05931">
        <ele>853</ele>
        <time>2026-08-13T14:23:07Z</time>
      </trkpt>
      <trkpt lat="45.04869" lon="4.05914">
        <ele>851</ele>
        <time>2026-08-13T14:23:35Z</time>
      </trkpt>
      <trkpt lat="45.04829" lon="4.05887">
        <ele>846</ele>
        <time>2026-08-13T14:24:35Z</time>
      </trkpt>
      <trkpt lat="45.0482" lon="4.05865">
        <ele>844</ele>
        <time>2026-08-13T14:24:59Z</time>
      </trkpt>
      <trkpt lat="45.04813" lon="4.05856">
        <ele>842</ele>
        <time>2026-08-13T14:25:11Z</time>
      </trkpt>
      <trkpt lat="45.04806" lon="4.05854">
        <ele>841</ele>
        <time>2026-08-13T14:25:21Z</time>
      </trkpt>
      <trkpt lat="45.048" lon="4.05843">
        <ele>840</ele>
        <time>2026-08-13T14:25:34Z</time>
      </trkpt>
      <trkpt lat="45.04801" lon="4.05785">
        <ele>838</ele>
        <time>2026-08-13T14:26:29Z</time>
      </trkpt>
      <trkpt lat="45.04777" lon="4.05712">
        <ele>830</ele>
        <time>2026-08-13T14:27:44Z</time>
      </trkpt>
      <trkpt lat="45.04715" lon="4.0562">
        <ele>819</ele>
        <time>2026-08-13T14:29:44Z</time>
      </trkpt>
      <trkpt lat="45.047" lon="4.05606">
        <ele>817</ele>
        <time>2026-08-13T14:30:08Z</time>
      </trkpt>
      <trkpt lat="45.04642" lon="4.05507">
        <ele>810</ele>
        <time>2026-08-13T14:32:10Z</time>
      </trkpt>
      <trkpt lat="45.04623" lon="4.05489">
        <ele>809</ele>
        <time>2026-08-13T14:32:40Z</time>
      </trkpt>
      <trkpt lat="45.04618" lon="4.05459">
        <ele>809</ele>
        <time>2026-08-13T14:33:09Z</time>
      </trkpt>
      <trkpt lat="45.04613" lon="4.05456">
        <ele>809</ele>
        <time>2026-08-13T14:33:16Z</time>
      </trkpt>
      <trkpt lat="45.046" lon="4.05412">
        <ele>808</ele>
        <time>2026-08-13T14:34:01Z</time>
      </trkpt>
      <trkpt lat="45.04572" lon="4.05357">
        <ele>806</ele>
        <time>2026-08-13T14:35:05Z</time>
      </trkpt>
      <trkpt lat="45.04529" lon="4.05337">
        <ele>805</ele>
        <time>2026-08-13T14:36:06Z</time>
      </trkpt>
      <trkpt lat="45.0451" lon="4.05324">
        <ele>805</ele>
        <time>2026-08-13T14:36:34Z</time>
      </trkpt>
      <trkpt lat="45.04485" lon="4.05318">
        <ele>805</ele>
        <time>2026-08-13T14:37:08Z</time>
      </trkpt>
      <trkpt lat="45.04421" lon="4.05312">
        <ele>806</ele>
        <time>2026-08-13T14:38:33Z</time>
      </trkpt>
      <trkpt lat="45.04385" lon="4.05313">
        <ele>806</ele>
        <time>2026-08-13T14:39:21Z</time>
      </trkpt>
      <trkpt lat="45.0434" lon="4.05305">
        <ele>805</ele>
        <time>2026-08-13T14:40:22Z</time>
      </trkpt>
      <trkpt lat="45.04306" lon="4.05315">
        <ele>803</ele>
        <time>2026-08-13T14:41:08Z</time>
      </trkpt>
      <trkpt lat="45.04261" lon="4.05248">
        <ele>797</ele>
        <time>2026-08-13T14:42:35Z</time>
      </trkpt>
      <trkpt lat="45.04201" lon="4.05179">
        <ele>796</ele>
        <time>2026-08-13T14:44:18Z</time>
      </trkpt>
      <trkpt lat="45.0419" lon="4.05171">
        <ele>796</ele>
        <time>2026-08-13T14:44:35Z</time>
      </trkpt>
      <trkpt lat="45.04179" lon="4.05167">
        <ele>796</ele>
        <time>2026-08-13T14:44:50Z</time>
      </trkpt>
      <trkpt lat="45.04163" lon="4.05168">
        <ele>797</ele>
        <time>2026-08-13T14:45:11Z</time>
      </trkpt>
      <trkpt lat="45.04095" lon="4.05139">
        <ele>798</ele>
        <time>2026-08-13T14:46:46Z</time>
      </trkpt>
      <trkpt lat="45.04074" lon="4.05107">
        <ele>798</ele>
        <time>2026-08-13T14:47:27Z</time>
      </trkpt>
      <trkpt lat="45.04029" lon="4.05076">
        <ele>799</ele>
        <time>2026-08-13T14:48:34Z</time>
      </trkpt>
      <trkpt lat="45.03995" lon="4.05047">
        <ele>800</ele>
        <time>2026-08-13T14:49:27Z</time>
      </trkpt>
      <trkpt lat="45.03952" lon="4.05004">
        <ele>803</ele>
        <time>2026-08-13T14:50:37Z</time>
      </trkpt>
      <trkpt lat="45.03926" lon="4.04971">
        <ele>804</ele>
        <time>2026-08-13T14:51:24Z</time>
      </trkpt>
      <trkpt lat="45.03881" lon="4.04929">
        <ele>807</ele>
        <time>2026-08-13T14:52:36Z</time>
      </trkpt>
      <trkpt lat="45.0383" lon="4.04843">
        <ele>810</ele>
        <time>2026-08-13T14:54:22Z</time>
      </trkpt>
      <trkpt lat="45.03802" lon="4.04805">
        <ele>810</ele>
        <time>2026-08-13T14:55:14Z</time>
      </trkpt>
      <trkpt lat="45.03782" lon="4.04756">
        <ele>809</ele>
        <time>2026-08-13T14:56:07Z</time>
      </trkpt>
      <trkpt lat="45.03768" lon="4.04746">
        <ele>809</ele>
        <time>2026-08-13T14:56:28Z</time>
      </trkpt>
      <trkpt lat="45.03744" lon="4.04737">
        <ele>809</ele>
        <time>2026-08-13T14:57:01Z</time>
      </trkpt>
      <trkpt lat="45.03702" lon="4.04734">
        <ele>810</ele>
        <time>2026-08-13T14:57:57Z</time>
      </trkpt>
      <trkpt lat="45.03695" lon="4.04736">
        <ele>813</ele>
      </trkpt>
      <trkpt lat="45.03691" lon="4.04736">
        <ele>812.5</ele>
      </trkpt>
      <trkpt lat="45.03692" lon="4.04801">
        <ele>814.8</ele>
      </trkpt>
      <trkpt lat="45.03691" lon="4.04852">
        <ele>816.8</ele>
      </trkpt>
      <trkpt lat="45.03689" lon="4.04899">
        <ele>819</ele>
      </trkpt>
      <trkpt lat="45.03685" lon="4.04936">
        <ele>820.5</ele>
      </trkpt>
      <trkpt lat="45.03675" lon="4.05029">
        <ele>823.4</ele>
      </trkpt>
      <trkpt lat="45.0367" lon="4.0508">
        <ele>822.2</ele>
      </trkpt>
      <trkpt lat="45.03669" lon="4.05097">
        <ele>822</ele>
      </trkpt>
      <trkpt lat="45.0367" lon="4.0508">
        <ele>822.2</ele>
      </trkpt>
      <trkpt lat="45.03664" lon="4.05079">
        <ele>822.6</ele>
      </trkpt>
      <trkpt lat="45.03616" lon="4.05068">
        <ele>827.8</ele>
      </trkpt>
      <trkpt lat="45.03611" lon="4.05064">
        <ele>828.1</ele>
      </trkpt>
    </trkseg>
  </trk>
</gpx>